Skip Navigation
Skip Navigation

Today's Weather Data

Time Wind Dir Wind Spd
mph
Wind Gust
mph
Hum In
%
Humidity
%
Temp In
F
Temp
F
Raw Barom
in
Tot Rain
in
UV Solar
W/sqm
DailyRain
in
HourRain
in
24HrRain
in
RainRate
in/hr
9/25/2017 12:01:59a 31 0 9 21 20 81.4 70.2 29.89 0.48 0.0 0 0.00 0.00 0.00 0.000
9/25/2017 12:04:00a 315 5 6 21 20 81.4 70.1 29.89 0.48 0.0 0 0.00 0.00 0.00 0.000
9/25/2017 12:05:01a 314 3 6 21 20 81.4 70.0 29.89 0.48 0.0 0 0.00 0.00 0.00 0.000
9/25/2017 12:06:01a 314 3 6 21 20 81.4 70.0 29.89 0.48 0.0 0 0.00 0.00 0.00 0.000
9/25/2017 12:07:01a 314 3 6 21 20 81.4 70.0 29.89 0.48 0.0 0 0.00 0.00 0.00 0.000
9/25/2017 12:08:02a 341 3 6 21 20 81.4 69.9 29.89 0.48 0.0 0 0.00 0.00 0.00 0.000
9/25/2017 12:09:02a 291 5 6 21 20 81.4 69.8 29.89 0.48 0.0 0 0.00 0.00 0.00 0.000
9/25/2017 12:10:09a 272 4 6 21 20 81.4 69.8 29.89 0.48 0.0 0 0.00 0.00 0.00 0.000
9/25/2017 12:11:13a 272 4 6 21 20 81.4 69.8 29.89 0.48 0.0 0 0.00 0.00 0.00 0.000
9/25/2017 12:12:19a 272 4 6 21 20 81.4 69.8 29.89 0.48 0.0 0 0.00 0.00 0.00 0.000
9/25/2017 12:13:19a 287 4 6 21 20 81.4 69.7 29.89 0.48 0.0 0 0.00 0.00 0.00 0.000
9/25/2017 12:14:20a 297 3 6 21 20 81.4 69.7 29.89 0.48 0.0 0 0.00 0.00 0.00 0.000
9/25/2017 12:15:20a 303 4 6 21 20 81.4 69.7 29.89 0.48 0.0 0 0.00 0.00 0.00 0.000
9/25/2017 12:16:21a 303 4 6 21 20 81.4 69.7 29.89 0.48 0.0 0 0.00 0.00 0.00 0.000
9/25/2017 12:17:24a 303 4 6 21 20 81.4 69.7 29.89 0.48 0.0 0 0.00 0.00 0.00 0.000
9/25/2017 12:18:24a 321 3 3 21 21 81.2 69.4 29.89 0.48 0.0 0 0.00 0.00 0.00 0.000
9/25/2017 12:19:25a 281 4 5 21 21 81.2 69.3 29.89 0.48 0.0 0 0.00 0.00 0.00 0.000
9/25/2017 12:20:31a 281 4 5 21 21 81.2 69.3 29.89 0.48 0.0 0 0.00 0.00 0.00 0.000
9/25/2017 12:21:32a 281 4 5 21 21 81.2 69.3 29.89 0.48 0.0 0 0.00 0.00 0.00 0.000
9/25/2017 12:22:35a 287 3 5 21 20 81.2 68.9 29.89 0.48 0.0 0 0.00 0.00 0.00 0.000
9/25/2017 12:23:36a 287 1 5 21 20 81.2 68.8 29.88 0.48 0.0 0 0.00 0.00 0.00 0.000
9/25/2017 12:24:36a 287 3 5 21 20 81.2 68.7 29.88 0.48 0.0 0 0.00 0.00 0.00 0.000
9/25/2017 12:26:40a 290 4 5 21 20 81.2 68.6 29.88 0.48 0.0 0 0.00 0.00 0.00 0.000
9/25/2017 12:27:43a 281 5 7 21 21 81.2 68.2 29.89 0.48 0.0 0 0.00 0.00 0.00 0.000
9/25/2017 12:28:47a 292 9 10 21 20 81.2 68.1 29.89 0.48 0.0 0 0.00 0.00 0.00 0.000
9/25/2017 12:29:47a 285 7 10 21 20 81.2 68.1 29.89 0.48 0.0 0 0.00 0.00 0.00 0.000
9/25/2017 12:30:48a 283 5 10 21 20 81.2 68.1 29.89 0.48 0.0 0 0.00 0.00 0.00 0.000
9/25/2017 12:31:48a 283 5 10 21 20 81.2 68.1 29.89 0.48 0.0 0 0.00 0.00 0.00 0.000
9/25/2017 12:32:52a 287 6 7 21 21 81.2 68.3 29.88 0.48 0.0 0 0.00 0.00 0.00 0.000
9/25/2017 12:33:55a 303 7 7 21 21 81.2 68.4 29.89 0.48 0.0 0 0.00 0.00 0.00 0.000
9/25/2017 12:35:01a 300 6 9 21 20 81.2 68.5 29.89 0.48 0.0 0 0.00 0.00 0.00 0.000
9/25/2017 12:36:02a 300 6 9 21 20 81.2 68.5 29.89 0.48 0.0 0 0.00 0.00 0.00 0.000
9/25/2017 12:37:03a 300 6 9 21 20 81.2 68.5 29.89 0.48 0.0 0 0.00 0.00 0.00 0.000
9/25/2017 12:38:03a 307 10 10 21 20 81.2 68.9 29.88 0.48 0.0 0 0.00 0.00 0.00 0.000
9/25/2017 12:39:03a 300 7 10 21 20 81.2 69.1 29.88 0.48 0.0 0 0.00 0.00 0.00 0.000
9/25/2017 12:41:13a 281 7 10 21 20 81.2 69.3 29.88 0.48 0.0 0 0.00 0.00 0.00 0.000
9/25/2017 12:42:13a 281 7 10 21 20 81.2 69.3 29.88 0.48 0.0 0 0.00 0.00 0.00 0.000
9/25/2017 12:43:20a 294 4 10 20 20 81.2 69.9 29.88 0.48 0.0 0 0.00 0.00 0.00 0.000
9/25/2017 12:44:20a 303 5 10 20 20 81.0 70.0 29.88 0.48 0.0 0 0.00 0.00 0.00 0.000
9/25/2017 12:45:23a 296 7 10 20 20 81.0 70.0 29.88 0.48 0.0 0 0.00 0.00 0.00 0.000
9/25/2017 12:46:24a 296 7 10 20 20 81.0 70.0 29.88 0.48 0.0 0 0.00 0.00 0.00 0.000
9/25/2017 12:47:24a 296 7 10 20 20 81.0 70.0 29.88 0.48 0.0 0 0.00 0.00 0.00 0.000
9/25/2017 12:48:24a 285 5 10 20 19 81.0 70.2 29.88 0.48 0.0 0 0.00 0.00 0.00 0.000
9/25/2017 12:49:25a 274 4 10 20 19 81.0 70.3 29.88 0.48 0.0 0 0.00 0.00 0.00 0.000
9/25/2017 12:50:25a 293 2 10 20 19 81.0 70.3 29.88 0.48 0.0 0 0.00 0.00 0.00 0.000
9/25/2017 12:51:26a 293 2 10 20 19 81.0 70.3 29.88 0.48 0.0 0 0.00 0.00 0.00 0.000
9/25/2017 12:52:26a 315 5 10 20 19 81.0 70.5 29.88 0.48 0.0 0 0.00 0.00 0.00 0.000
9/25/2017 12:53:27a 287 4 10 20 18 81.0 70.6 29.88 0.48 0.0 0 0.00 0.00 0.00 0.000
9/25/2017 12:54:27a 257 5 10 20 19 81.0 70.7 29.88 0.48 0.0 0 0.00 0.00 0.00 0.000
9/25/2017 12:55:28a 272 4 10 20 19 81.0 70.7 29.88 0.48 0.0 0 0.00 0.00 0.00 0.000
9/25/2017 12:56:28a 272 4 10 20 19 81.0 70.7 29.88 0.48 0.0 0 0.00 0.00 0.00 0.000
9/25/2017 12:57:31a 287 10 10 20 19 81.0 70.8 29.88 0.48 0.0 0 0.00 0.00 0.00 0.000
9/25/2017 12:58:32a 297 7 12 20 18 81.0 70.8 29.88 0.48 0.0 0 0.00 0.00 0.00 0.000
9/25/2017 12:59:32a 299 5 12 20 18 81.0 70.9 29.88 0.48 0.0 0 0.00 0.00 0.00 0.000
9/25/2017 1:00:33a 286 5 12 20 18 81.0 70.9 29.88 0.48 0.0 0 0.00 0.00 0.00 0.000
9/25/2017 1:01:36a 286 5 12 20 18 81.0 70.9 29.88 0.48 0.0 0 0.00 0.00 0.00 0.000
9/25/2017 1:02:36a 249 4 12 20 19 81.0 70.9 29.88 0.48 0.0 0 0.00 0.00 0.00 0.000
9/25/2017 1:05:38a 272 5 7 20 20 81.0 70.8 29.88 0.48 0.0 0 0.00 0.00 0.00 0.000
9/25/2017 1:06:38a 272 5 7 20 20 81.0 70.8 29.88 0.48 0.0 0 0.00 0.00 0.00 0.000
9/25/2017 1:07:42a 264 7 7 20 20 81.0 70.5 29.88 0.48 0.0 0 0.00 0.00 0.00 0.000
9/25/2017 1:08:45a 223 4 7 20 20 81.0 70.4 29.88 0.48 0.0 0 0.00 0.00 0.00 0.000
9/25/2017 1:09:45a 261 4 9 20 20 81.0 70.3 29.88 0.48 0.0 0 0.00 0.00 0.00 0.000
9/25/2017 1:10:49a 261 5 9 20 20 81.0 70.3 29.88 0.48 0.0 0 0.00 0.00 0.00 0.000
9/25/2017 1:11:49a 261 5 9 20 20 81.0 70.3 29.88 0.48 0.0 0 0.00 0.00 0.00 0.000
9/25/2017 1:12:53a 253 3 9 20 20 81.0 70.1 29.88 0.48 0.0 0 0.00 0.00 0.00 0.000
9/25/2017 1:13:56a 249 3 9 20 21 81.0 70.0 29.88 0.48 0.0 0 0.00 0.00 0.00 0.000
9/25/2017 1:15:02a 256 4 9 20 21 81.0 70.0 29.88 0.48 0.0 0 0.00 0.00 0.00 0.000
9/25/2017 1:16:03a 256 4 9 20 21 81.0 70.0 29.88 0.48 0.0 0 0.00 0.00 0.00 0.000
9/25/2017 1:17:03a 256 4 9 20 21 81.0 70.0 29.88 0.48 0.0 0 0.00 0.00 0.00 0.000
9/25/2017 1:18:07a 266 6 7 20 21 81.0 69.7 29.88 0.48 0.0 0 0.00 0.00 0.00 0.000
9/25/2017 1:19:07a 267 5 7 20 21 81.0 69.6 29.88 0.48 0.0 0 0.00 0.00 0.00 0.000
9/25/2017 1:20:10a 264 2 7 20 21 81.0 69.5 29.88 0.48 0.0 0 0.00 0.00 0.00 0.000
9/25/2017 1:21:11a 264 2 7 20 21 81.0 69.5 29.88 0.48 0.0 0 0.00 0.00 0.00 0.000
9/25/2017 1:22:11a 264 2 7 20 21 81.0 69.5 29.88 0.48 0.0 0 0.00 0.00 0.00 0.000
9/25/2017 1:23:12a 241 2 7 20 21 80.8 69.3 29.88 0.48 0.0 0 0.00 0.00 0.00 0.000
9/25/2017 1:24:12a 237 3 7 20 21 80.8 69.2 29.88 0.48 0.0 0 0.00 0.00 0.00 0.000
9/25/2017 1:25:18a 235 5 9 20 21 80.8 69.1 29.88 0.48 0.0 0 0.00 0.00 0.00 0.000
9/25/2017 1:26:19a 235 5 9 20 21 80.8 69.1 29.88 0.48 0.0 0 0.00 0.00 0.00 0.000
9/25/2017 1:28:19a 279 9 9 20 20 80.8 69.1 29.88 0.48 0.0 0 0.00 0.00 0.00 0.000
9/25/2017 1:29:20a 272 7 9 20 21 80.8 69.1 29.88 0.48 0.0 0 0.00 0.00 0.00 0.000
9/25/2017 1:30:23a 264 4 9 20 21 80.8 69.2 29.88 0.48 0.0 0 0.00 0.00 0.00 0.000
9/25/2017 1:31:27a 264 4 9 20 21 80.8 69.2 29.88 0.48 0.0 0 0.00 0.00 0.00 0.000
9/25/2017 1:32:27a 264 4 9 20 21 80.8 69.2 29.88 0.48 0.0 0 0.00 0.00 0.00 0.000
9/25/2017 1:33:28a 266 6 6 20 21 80.8 69.3 29.88 0.48 0.0 0 0.00 0.00 0.00 0.000
9/25/2017 1:34:28a 270 7 7 20 21 80.8 69.3 29.88 0.48 0.0 0 0.00 0.00 0.00 0.000
9/25/2017 1:35:31a 256 3 10 20 21 80.8 69.3 29.88 0.48 0.0 0 0.00 0.00 0.00 0.000
9/25/2017 1:36:32a 256 3 10 20 21 80.8 69.3 29.88 0.48 0.0 0 0.00 0.00 0.00 0.000
9/25/2017 1:37:32a 274 5 10 20 21 80.8 69.4 29.88 0.48 0.0 0 0.00 0.00 0.00 0.000
9/25/2017 1:38:36a 273 6 10 20 21 80.8 69.4 29.88 0.48 0.0 0 0.00 0.00 0.00 0.000
9/25/2017 1:39:39a 277 9 10 20 21 80.8 69.4 29.88 0.48 0.0 0 0.00 0.00 0.00 0.000
9/25/2017 1:40:40a 273 6 10 20 21 80.8 69.4 29.88 0.48 0.0 0 0.00 0.00 0.00 0.000
9/25/2017 1:42:46a 273 6 10 20 21 80.8 69.4 29.88 0.48 0.0 0 0.00 0.00 0.00 0.000
9/25/2017 1:43:45a 285 6 10 20 20 80.8 69.4 29.88 0.48 0.0 0 0.00 0.00 0.00 0.000
9/25/2017 1:44:45a 281 7 10 20 20 80.8 69.4 29.88 0.48 0.0 0 0.00 0.00 0.00 0.000
9/25/2017 1:45:48a 285 7 10 20 20 80.8 69.4 29.88 0.48 0.0 0 0.00 0.00 0.00 0.000
9/25/2017 1:46:49a 285 7 10 20 20 80.8 69.4 29.88 0.48 0.0 0 0.00 0.00 0.00 0.000
9/25/2017 1:47:52a 291 6 8 20 20 80.6 69.4 29.88 0.48 0.0 0 0.00 0.00 0.00 0.000
9/25/2017 1:49:53a 298 7 8 20 20 80.6 69.4 29.88 0.48 0.0 0 0.00 0.00 0.00 0.000
9/25/2017 1:50:53a 299 6 8 20 20 80.6 69.4 29.88 0.48 0.0 0 0.00 0.00 0.00 0.000
9/25/2017 1:51:53a 299 6 8 20 20 80.6 69.4 29.88 0.48 0.0 0 0.00 0.00 0.00 0.000
9/25/2017 1:52:57a 302 5 8 20 21 80.6 69.2 29.88 0.48 0.0 0 0.00 0.00 0.00 0.000
9/25/2017 1:53:57a 303 5 8 20 21 80.6 69.2 29.88 0.48 0.0 0 0.00 0.00 0.00 0.000
9/25/2017 1:54:57a 304 3 8 20 21 80.6 69.1 29.88 0.48 0.0 0 0.00 0.00 0.00 0.000
9/25/2017 1:55:58a 304 3 8 20 21 80.6 69.1 29.88 0.48 0.0 0 0.00 0.00 0.00 0.000
9/25/2017 1:57:01a 304 3 8 20 21 80.6 69.1 29.88 0.48 0.0 0 0.00 0.00 0.00 0.000
9/25/2017 1:58:07a 299 2 8 20 21 80.6 68.8 29.87 0.48 0.0 0 0.00 0.00 0.00 0.000
9/25/2017 1:59:08a 291 2 8 20 21 80.6 68.7 29.88 0.48 0.0 0 0.00 0.00 0.00 0.000
9/25/2017 2:00:11a 292 0 8 20 21 80.6 68.6 29.87 0.48 0.0 0 0.00 0.00 0.00 0.000
9/25/2017 2:01:12a 292 0 8 20 21 80.6 68.6 29.87 0.48 0.0 0 0.00 0.00 0.00 0.000
9/25/2017 2:02:12a 292 0 8 20 21 80.6 68.6 29.87 0.48 0.0 0 0.00 0.00 0.00 0.000
9/25/2017 2:03:18a 257 5 6 20 21 80.6 68.4 29.87 0.48 0.0 0 0.00 0.00 0.00 0.000
9/25/2017 2:04:22a 246 3 7 20 21 80.6 68.3 29.87 0.48 0.0 0 0.00 0.00 0.00 0.000
9/25/2017 2:05:22a 246 2 7 20 21 80.6 68.3 29.87 0.48 0.0 0 0.00 0.00 0.00 0.000
9/25/2017 2:06:29a 246 2 7 20 21 80.6 68.3 29.87 0.48 0.0 0 0.00 0.00 0.00 0.000
9/25/2017 2:07:29a 246 2 7 20 21 80.6 68.3 29.87 0.48 0.0 0 0.00 0.00 0.00 0.000
9/25/2017 2:08:30a 262 3 7 20 21 80.6 68.4 29.87 0.48 0.0 0 0.00 0.00 0.00 0.000
9/25/2017 2:09:30a 245 2 7 20 20 80.6 68.5 29.87 0.48 0.0 0 0.00 0.00 0.00 0.000
9/25/2017 2:10:33a 251 5 7 20 20 80.6 68.5 29.87 0.48 0.0 0 0.00 0.00 0.00 0.000
9/25/2017 2:11:34a 251 5 7 20 20 80.6 68.5 29.87 0.48 0.0 0 0.00 0.00 0.00 0.000
9/25/2017 2:12:34a 251 5 7 20 20 80.6 68.5 29.87 0.48 0.0 0 0.00 0.00 0.00 0.000
9/25/2017 2:13:34a 218 4 8 20 20 80.6 68.7 29.87 0.48 0.0 0 0.00 0.00 0.00 0.000
9/25/2017 2:14:38a 330 3 8 20 20 80.6 68.9 29.87 0.48 0.0 0 0.00 0.00 0.00 0.000
9/25/2017 2:17:39a 349 4 5 20 20 80.6 69.1 29.86 0.48 0.0 0 0.00 0.00 0.00 0.000
9/25/2017 2:18:40a 335 6 7 20 20 80.4 69.1 29.86 0.48 0.0 0 0.00 0.00 0.00 0.000
9/25/2017 2:19:40a 330 4 7 20 20 80.4 69.1 29.87 0.48 0.0 0 0.00 0.00 0.00 0.000
9/25/2017 2:20:43a 330 5 7 20 20 80.4 69.1 29.87 0.48 0.0 0 0.00 0.00 0.00 0.000
9/25/2017 2:23:48a 330 2 7 20 20 80.4 68.7 29.87 0.48 0.0 0 0.00 0.00 0.00 0.000
9/25/2017 2:24:48a 330 1 7 20 19 80.4 68.6 29.87 0.48 0.0 0 0.00 0.00 0.00 0.000
9/25/2017 2:25:48a 330 0 7 20 19 80.4 68.5 29.87 0.48 0.0 0 0.00 0.00 0.00 0.000
9/25/2017 2:26:49a 330 0 7 20 19 80.4 68.5 29.87 0.48 0.0 0 0.00 0.00 0.00 0.000
9/25/2017 2:27:52a 212 2 7 20 19 80.4 68.4 29.87 0.48 0.0 0 0.00 0.00 0.00 0.000
9/25/2017 2:28:53a 227 1 7 20 19 80.4 68.4 29.87 0.48 0.0 0 0.00 0.00 0.00 0.000
9/25/2017 2:30:56a 266 5 7 20 19 80.4 68.4 29.87 0.48 0.0 0 0.00 0.00 0.00 0.000
9/25/2017 2:32:00a 266 5 7 20 19 80.4 68.4 29.87 0.48 0.0 0 0.00 0.00 0.00 0.000
9/25/2017 2:33:06a 202 1 6 20 19 80.4 68.7 29.86 0.48 0.0 0 0.00 0.00 0.00 0.000
9/25/2017 2:34:07a 228 3 6 20 19 80.4 68.8 29.86 0.48 0.0 0 0.00 0.00 0.00 0.000
9/25/2017 2:35:10a 330 3 6 20 19 80.4 68.9 29.86 0.48 0.0 0 0.00 0.00 0.00 0.000
9/25/2017 2:37:11a 330 3 6 20 19 80.4 68.9 29.86 0.48 0.0 0 0.00 0.00 0.00 0.000
9/25/2017 2:38:11a 219 0 6 20 19 80.4 69.3 29.86 0.48 0.0 0 0.00 0.00 0.00 0.000
9/25/2017 2:39:18a 265 5 6 20 19 80.4 69.5 29.86 0.48 0.0 0 0.00 0.00 0.00 0.000
9/25/2017 2:40:18a 267 3 6 20 19 80.4 69.5 29.86 0.48 0.0 0 0.00 0.00 0.00 0.000
9/25/2017 2:41:22a 267 3 6 20 19 80.4 69.5 29.86 0.48 0.0 0 0.00 0.00 0.00 0.000
9/25/2017 2:43:22a 307 9 9 20 19 80.4 69.8 29.86 0.48 0.0 0 0.00 0.00 0.00 0.000
9/25/2017 2:44:23a 325 9 10 20 19 80.4 69.7 29.86 0.48 0.0 0 0.00 0.00 0.00 0.000
9/25/2017 2:45:23a 342 10 10 20 19 80.4 69.6 29.86 0.48 0.0 0 0.00 0.00 0.00 0.000
9/25/2017 2:46:23a 342 10 10 20 19 80.4 69.6 29.86 0.48 0.0 0 0.00 0.00 0.00 0.000
9/25/2017 2:47:24a 342 10 10 20 19 80.4 69.6 29.86 0.48 0.0 0 0.00 0.00 0.00 0.000
9/25/2017 2:48:24a 339 5 6 20 19 80.4 68.9 29.86 0.48 0.0 0 0.00 0.00 0.00 0.000
9/25/2017 2:49:25a 335 2 6 20 20 80.4 68.7 29.86 0.48 0.0 0 0.00 0.00 0.00 0.000
9/25/2017 2:50:25a 335 3 6 20 19 80.4 68.6 29.86 0.48 0.0 0 0.00 0.00 0.00 0.000
9/25/2017 2:51:28a 335 3 6 20 19 80.4 68.6 29.86 0.48 0.0 0 0.00 0.00 0.00 0.000
9/25/2017 2:52:29a 335 3 6 20 19 80.4 68.6 29.86 0.48 0.0 0 0.00 0.00 0.00 0.000
9/25/2017 2:53:32a 335 3 6 20 19 80.2 68.3 29.86 0.48 0.0 0 0.00 0.00 0.00 0.000
9/25/2017 2:54:32a 335 1 6 20 19 80.2 68.3 29.86 0.48 0.0 0 0.00 0.00 0.00 0.000
9/25/2017 2:55:33a 335 1 6 20 19 80.2 68.2 29.86 0.48 0.0 0 0.00 0.00 0.00 0.000
9/25/2017 2:56:33a 335 1 6 20 19 80.2 68.2 29.86 0.48 0.0 0 0.00 0.00 0.00 0.000
9/25/2017 2:57:33a 330 2 6 20 19 80.2 68.2 29.86 0.48 0.0 0 0.00 0.00 0.00 0.000
9/25/2017 2:58:34a 204 7 7 20 20 80.2 68.2 29.86 0.48 0.0 0 0.00 0.00 0.00 0.000
9/25/2017 3:00:35a 244 3 7 20 19 80.2 68.2 29.86 0.48 0.0 0 0.00 0.00 0.00 0.000
9/25/2017 3:01:38a 244 3 7 20 19 80.2 68.2 29.86 0.48 0.0 0 0.00 0.00 0.00 0.000
9/25/2017 3:02:41a 290 6 7 20 19 80.2 68.4 29.86 0.48 0.0 0 0.00 0.00 0.00 0.000
9/25/2017 3:03:42a 330 2 7 20 19 80.2 68.5 29.86 0.48 0.0 0 0.00 0.00 0.00 0.000
9/25/2017 3:04:42a 335 2 7 20 20 80.2 68.7 29.86 0.48 0.0 0 0.00 0.00 0.00 0.000
9/25/2017 3:05:42a 354 3 7 20 20 80.2 68.7 29.86 0.48 0.0 0 0.00 0.00 0.00 0.000
9/25/2017 3:06:49a 354 3 7 20 20 80.2 68.7 29.86 0.48 0.0 0 0.00 0.00 0.00 0.000
9/25/2017 3:07:49a 6 0 7 20 20 80.2 69.0 29.85 0.48 0.0 0 0.00 0.00 0.00 0.000
9/25/2017 3:08:53a 6 0 7 20 20 80.2 69.0 29.86 0.48 0.0 0 0.00 0.00 0.00 0.000
9/25/2017 3:09:53a 249 6 7 20 20 80.2 69.0 29.86 0.48 0.0 0 0.00 0.00 0.00 0.000
9/25/2017 3:10:54a 202 3 7 20 19 80.2 69.0 29.86 0.48 0.0 0 0.00 0.00 0.00 0.000
9/25/2017 3:11:57a 202 3 7 20 19 80.2 69.0 29.86 0.48 0.0 0 0.00 0.00 0.00 0.000
9/25/2017 3:12:57a 287 2 7 20 18 80.1 69.4 29.85 0.48 0.0 0 0.00 0.00 0.00 0.000
9/25/2017 3:13:58a 306 3 7 20 18 80.1 69.6 29.85 0.48 0.0 0 0.00 0.00 0.00 0.000
9/25/2017 3:14:58a 33 4 7 20 18 80.1 69.7 29.85 0.48 0.0 0 0.00 0.00 0.00 0.000
9/25/2017 3:15:59a 33 4 7 20 18 80.1 69.7 29.85 0.48 0.0 0 0.00 0.00 0.00 0.000
9/25/2017 3:17:00a 33 4 7 20 18 80.1 69.7 29.85 0.48 0.0 0 0.00 0.00 0.00 0.000
9/25/2017 3:18:03a 32 0 1 20 18 80.1 70.2 29.86 0.48 0.0 0 0.00 0.00 0.00 0.000
9/25/2017 3:19:03a 181 4 6 20 18 80.1 70.2 29.86 0.48 0.0 0 0.00 0.00 0.00 0.000
9/25/2017 3:20:04a 146 11 14 20 18 80.1 70.4 29.85 0.48 0.0 0 0.00 0.00 0.00 0.000
9/25/2017 3:21:07a 146 11 14 20 18 80.1 70.4 29.85 0.48 0.0 0 0.00 0.00 0.00 0.000
9/25/2017 3:22:11a 146 11 14 20 18 80.1 70.4 29.85 0.48 0.0 0 0.00 0.00 0.00 0.000
9/25/2017 3:23:11a 184 4 14 20 18 80.1 70.7 29.85 0.48 0.0 0 0.00 0.00 0.00 0.000
9/25/2017 3:24:12a 159 7 14 20 18 80.1 70.8 29.85 0.48 0.0 0 0.00 0.00 0.00 0.000
9/25/2017 3:25:12a 134 5 14 20 18 80.1 70.9 29.85 0.48 0.0 0 0.00 0.00 0.00 0.000
9/25/2017 3:26:12a 134 5 14 20 18 80.1 70.9 29.85 0.48 0.0 0 0.00 0.00 0.00 0.000
9/25/2017 3:27:13a 134 5 14 20 18 80.1 70.9 29.85 0.48 0.0 0 0.00 0.00 0.00 0.000
9/25/2017 3:28:29a 64 10 21 20 17 80.1 71.1 29.84 0.48 0.0 0 0.00 0.00 0.00 0.000
9/25/2017 3:29:32a 68 4 21 20 17 80.1 71.3 29.84 0.48 0.0 0 0.00 0.00 0.00 0.000
9/25/2017 3:30:33a 62 3 21 20 17 80.1 71.4 29.84 0.48 0.0 0 0.00 0.00 0.00 0.000
9/25/2017 3:31:33a 62 3 21 20 17 80.1 71.4 29.84 0.48 0.0 0 0.00 0.00 0.00 0.000
9/25/2017 3:32:33a 62 3 21 20 17 80.1 71.4 29.84 0.48 0.0 0 0.00 0.00 0.00 0.000
9/25/2017 3:33:40a 325 12 21 20 17 80.1 71.9 29.85 0.48 0.0 0 0.00 0.00 0.00 0.000
9/25/2017 3:34:43a 303 2 21 20 17 80.1 72.1 29.85 0.48 0.0 0 0.00 0.00 0.00 0.000
9/25/2017 3:35:43a 214 3 21 20 17 80.1 72.1 29.85 0.48 0.0 0 0.00 0.00 0.00 0.000
9/25/2017 3:36:47a 214 3 21 20 17 80.1 72.1 29.85 0.48 0.0 0 0.00 0.00 0.00 0.000
9/25/2017 3:37:47a 214 3 21 20 17 80.1 72.1 29.85 0.48 0.0 0 0.00 0.00 0.00 0.000
9/25/2017 3:38:50a 340 6 21 20 17 80.1 72.5 29.84 0.48 0.0 0 0.00 0.00 0.00 0.000
9/25/2017 3:39:51a 312 15 21 20 17 80.1 72.5 29.85 0.48 0.0 0 0.00 0.00 0.00 0.000
9/25/2017 3:40:50a 298 13 21 20 17 80.1 72.6 29.85 0.48 0.0 0 0.00 0.00 0.00 0.000
9/25/2017 3:41:50a 298 13 21 20 17 80.1 72.6 29.85 0.48 0.0 0 0.00 0.00 0.00 0.000
9/25/2017 3:44:00a 4 7 21 20 16 80.1 72.7 29.85 0.48 0.0 0 0.00 0.00 0.00 0.000
9/25/2017 3:45:23a 325 11 21 20 16 80.1 72.8 29.84 0.48 0.0 0 0.00 0.00 0.00 0.000
9/25/2017 3:46:26a 325 11 21 20 16 80.1 72.8 29.84 0.48 0.0 0 0.00 0.00 0.00 0.000
9/25/2017 3:47:29a 325 11 21 20 16 80.1 72.8 29.84 0.48 0.0 0 0.00 0.00 0.00 0.000
9/25/2017 3:48:30a 284 13 15 20 16 79.9 73.1 29.84 0.48 0.0 0 0.00 0.00 0.00 0.000
9/25/2017 3:49:30a 177 10 15 20 16 79.9 73.1 29.84 0.48 0.0 0 0.00 0.00 0.00 0.000
9/25/2017 3:50:31a 139 4 15 20 16 79.9 73.1 29.84 0.48 0.0 0 0.00 0.00 0.00 0.000
9/25/2017 3:51:31a 139 4 15 20 16 79.9 73.1 29.84 0.48 0.0 0 0.00 0.00 0.00 0.000
9/25/2017 3:52:32a 139 4 15 20 16 79.9 73.1 29.84 0.48 0.0 0 0.00 0.00 0.00 0.000
9/25/2017 3:53:35a 330 18 18 20 16 79.9 73.2 29.85 0.48 0.0 0 0.00 0.00 0.00 0.000
9/25/2017 3:54:36a 25 9 18 20 16 79.9 73.2 29.85 0.48 0.0 0 0.00 0.00 0.00 0.000
9/25/2017 3:55:35a 46 5 18 20 16 79.9 73.2 29.85 0.48 0.0 0 0.00 0.00 0.00 0.000
9/25/2017 3:56:35a 46 5 18 20 16 79.9 73.2 29.85 0.48 0.0 0 0.00 0.00 0.00 0.000
9/25/2017 3:57:36a 335 11 18 20 16 79.9 73.2 29.85 0.48 0.0 0 0.00 0.00 0.00 0.000
9/25/2017 3:58:36a 356 7 18 20 16 79.9 73.2 29.84 0.48 0.0 0 0.00 0.00 0.00 0.000
9/25/2017 3:59:37a 60 6 18 20 16 79.9 73.2 29.84 0.48 0.0 0 0.00 0.00 0.00 0.000
9/25/2017 4:00:40a 7 9 18 20 16 79.9 73.2 29.84 0.48 0.0 0 0.00 0.00 0.00 0.000
9/25/2017 4:01:41a 7 9 18 20 16 79.9 73.2 29.84 0.48 0.0 0 0.00 0.00 0.00 0.000
9/25/2017 4:02:41a 330 9 10 20 16 79.9 73.1 29.85 0.48 0.0 0 0.00 0.00 0.00 0.000
9/25/2017 4:03:44a 193 4 10 20 16 79.9 73.1 29.84 0.48 0.0 0 0.00 0.00 0.00 0.000
9/25/2017 4:05:45a 242 5 10 20 16 79.9 73.1 29.84 0.48 0.0 0 0.00 0.00 0.00 0.000
9/25/2017 4:06:45a 242 5 10 20 16 79.9 73.1 29.84 0.48 0.0 0 0.00 0.00 0.00 0.000
9/25/2017 4:07:49a 301 10 11 20 16 79.9 72.9 29.85 0.48 0.0 0 0.00 0.00 0.00 0.000
9/25/2017 4:08:49a 316 14 16 20 16 79.9 72.9 29.84 0.48 0.0 0 0.00 0.00 0.00 0.000
9/25/2017 4:09:50a 325 7 16 20 16 79.9 72.8 29.84 0.48 0.0 0 0.00 0.00 0.00 0.000
9/25/2017 4:11:53a 314 10 16 20 16 79.9 72.8 29.84 0.48 0.0 0 0.00 0.00 0.00 0.000
9/25/2017 4:12:54a 325 11 16 20 16 79.9 72.8 29.84 0.48 0.0 0 0.00 0.00 0.00 0.000
9/25/2017 4:13:54a 330 18 29 20 16 79.9 72.8 29.84 0.48 0.0 0 0.00 0.00 0.00 0.000
9/25/2017 4:14:55a 316 6 29 20 16 79.9 72.9 29.84 0.48 0.0 0 0.00 0.00 0.00 0.000
9/25/2017 4:15:55a 312 5 29 20 16 79.9 72.9 29.84 0.48 0.0 0 0.00 0.00 0.00 0.000
9/25/2017 4:16:55a 312 5 29 20 16 79.9 72.9 29.84 0.48 0.0 0 0.00 0.00 0.00 0.000
9/25/2017 4:17:56a 291 4 5 20 16 79.9 72.9 29.84 0.48 0.0 0 0.00 0.00 0.00 0.000
9/25/2017 4:18:56a 335 3 11 20 16 79.9 72.9 29.84 0.48 0.0 0 0.00 0.00 0.00 0.000
9/25/2017 4:19:56a 3 4 11 20 16 79.9 72.9 29.84 0.48 0.0 0 0.00 0.00 0.00 0.000
9/25/2017 4:20:57a 9 10 11 20 16 79.9 72.9 29.84 0.48 0.0 0 0.00 0.00 0.00 0.000
9/25/2017 4:21:57a 9 10 11 20 16 79.9 72.9 29.84 0.48 0.0 0 0.00 0.00 0.00 0.000
9/25/2017 4:23:01a 320 7 11 20 16 79.9 72.9 29.84 0.48 0.0 0 0.00 0.00 0.00 0.000
9/25/2017 4:25:04a 301 15 18 20 16 79.9 72.8 29.84 0.48 0.0 0 0.00 0.00 0.00 0.000
9/25/2017 4:26:05a 301 15 18 20 16 79.9 72.8 29.84 0.48 0.0 0 0.00 0.00 0.00 0.000
9/25/2017 4:27:05a 301 15 18 20 16 79.9 72.8 29.84 0.48 0.0 0 0.00 0.00 0.00 0.000
9/25/2017 4:28:05a 314 16 22 20 16 79.9 72.8 29.84 0.48 0.0 0 0.00 0.00 0.00 0.000
9/25/2017 4:29:06a 31 11 22 20 16 79.9 72.8 29.84 0.48 0.0 0 0.00 0.00 0.00 0.000
9/25/2017 4:32:10a 73 11 22 19 16 79.9 72.8 29.84 0.48 0.0 0 0.00 0.00 0.00 0.000
9/25/2017 4:33:10a 26 4 11 19 16 79.7 72.6 29.84 0.48 0.0 0 0.00 0.00 0.00 0.000
9/25/2017 4:34:11a 353 7 11 20 16 79.7 72.6 29.84 0.48 0.0 0 0.00 0.00 0.00 0.000
9/25/2017 4:35:14a 37 9 11 20 16 79.7 72.6 29.84 0.48 0.0 0 0.00 0.00 0.00 0.000
9/25/2017 4:36:21a 37 9 11 20 16 79.7 72.6 29.84 0.48 0.0 0 0.00 0.00 0.00 0.000
9/25/2017 4:38:24a 5 14 14 19 16 79.7 72.5 29.84 0.48 0.0 0 0.00 0.00 0.00 0.000
9/25/2017 4:39:25a 339 3 14 19 16 79.7 72.4 29.84 0.48 0.0 0 0.00 0.00 0.00 0.000
9/25/2017 4:40:28a 27 9 14 19 16 79.7 72.4 29.84 0.48 0.0 0 0.00 0.00 0.00 0.000
9/25/2017 4:41:28a 27 9 14 19 16 79.7 72.4 29.84 0.48 0.0 0 0.00 0.00 0.00 0.000
9/25/2017 4:42:32a 27 9 14 19 16 79.7 72.4 29.84 0.48 0.0 0 0.00 0.00 0.00 0.000
9/25/2017 4:43:32a 33 7 21 19 16 79.7 72.4 29.85 0.48 0.0 0 0.00 0.00 0.00 0.000
9/25/2017 4:44:33a 315 2 21 19 16 79.7 72.3 29.85 0.48 0.0 0 0.00 0.00 0.00 0.000
9/25/2017 4:45:33a 5 6 21 19 17 79.7 72.4 29.85 0.48 0.0 0 0.00 0.00 0.00 0.000
9/25/2017 4:46:33a 5 6 21 19 17 79.7 72.4 29.85 0.48 0.0 0 0.00 0.00 0.00 0.000
9/25/2017 4:47:34a 6 5 6 19 16 79.7 72.3 29.84 0.48 0.0 0 0.00 0.00 0.00 0.000
9/25/2017 4:48:34a 0 12 12 19 16 79.7 72.3 29.84 0.48 0.0 0 0.00 0.00 0.00 0.000
9/25/2017 4:49:35a 335 9 12 19 17 79.7 72.3 29.84 0.48 0.0 0 0.00 0.00 0.00 0.000
9/25/2017 4:50:35a 355 7 12 19 17 79.7 72.3 29.84 0.48 0.0 0 0.00 0.00 0.00 0.000
9/25/2017 4:51:35a 355 7 12 19 17 79.7 72.3 29.84 0.48 0.0 0 0.00 0.00 0.00 0.000
9/25/2017 4:52:36a 339 11 12 19 17 79.7 72.3 29.85 0.48 0.0 0 0.00 0.00 0.00 0.000
9/25/2017 4:54:36a 318 9 14 19 17 79.7 72.2 29.84 0.48 0.0 0 0.00 0.00 0.00 0.000
9/25/2017 4:55:40a 300 17 20 19 17 79.7 72.2 29.84 0.48 0.0 0 0.00 0.00 0.00 0.000
9/25/2017 4:56:40a 300 17 20 19 17 79.7 72.2 29.84 0.48 0.0 0 0.00 0.00 0.00 0.000
9/25/2017 4:57:41a 345 15 20 19 16 79.7 72.2 29.85 0.48 0.0 0 0.00 0.00 0.00 0.000
9/25/2017 4:59:42a 335 12 20 19 17 79.7 72.2 29.84 0.48 0.0 0 0.00 0.00 0.00 0.000
9/25/2017 5:00:43a 316 13 20 19 17 79.7 72.2 29.84 0.48 0.0 0 0.00 0.00 0.00 0.000
9/25/2017 5:01:43a 316 13 20 19 17 79.7 72.2 29.84 0.48 0.0 0 0.00 0.00 0.00 0.000
9/25/2017 5:02:48a 350 2 6 19 17 79.7 72.1 29.85 0.48 0.0 0 0.00 0.00 0.00 0.000
9/25/2017 5:03:52a 2 10 14 19 17 79.7 72.1 29.85 0.48 0.0 0 0.00 0.00 0.00 0.000
9/25/2017 5:04:52a 315 6 20 19 17 79.7 72.0 29.85 0.48 0.0 0 0.00 0.00 0.00 0.000
9/25/2017 5:06:01a 306 9 20 19 17 79.7 72.0 29.85 0.48 0.0 0 0.00 0.00 0.00 0.000
9/25/2017 5:07:05a 306 9 20 19 17 79.7 72.0 29.85 0.48 0.0 0 0.00 0.00 0.00 0.000
9/25/2017 5:08:08a 306 9 20 19 17 79.7 72.0 29.85 0.48 0.0 0 0.00 0.00 0.00 0.000
9/25/2017 5:09:12a 298 3 20 19 17 79.5 71.9 29.85 0.48 0.0 0 0.00 0.00 0.00 0.000
9/25/2017 5:10:12a 272 5 20 19 17 79.5 71.8 29.85 0.48 0.0 0 0.00 0.00 0.00 0.000
9/25/2017 5:11:12a 272 5 20 19 17 79.5 71.8 29.85 0.48 0.0 0 0.00 0.00 0.00 0.000
9/25/2017 5:12:13a 272 5 20 19 17 79.5 71.8 29.85 0.48 0.0 0 0.00 0.00 0.00 0.000
9/25/2017 5:13:13a 14 6 20 19 17 79.7 71.8 29.85 0.48 0.0 0 0.00 0.00 0.00 0.000
9/25/2017 5:14:14a 12 6 20 19 17 79.7 71.8 29.85 0.48 0.0 0 0.00 0.00 0.00 0.000
9/25/2017 5:15:20a 34 5 20 19 17 79.7 71.8 29.85 0.48 0.0 0 0.00 0.00 0.00 0.000
9/25/2017 5:16:21a 34 5 20 19 17 79.7 71.8 29.85 0.48 0.0 0 0.00 0.00 0.00 0.000
9/25/2017 5:17:21a 34 5 20 19 17 79.7 71.8 29.85 0.48 0.0 0 0.00 0.00 0.00 0.000
9/25/2017 5:18:24a 330 2 6 19 17 79.5 71.9 29.85 0.48 0.0 0 0.00 0.00 0.00 0.000
9/25/2017 5:19:25a 286 5 15 19 17 79.5 71.9 29.85 0.48 0.0 0 0.00 0.00 0.00 0.000
9/25/2017 5:20:25a 279 5 15 19 17 79.5 71.9 29.85 0.48 0.0 0 0.00 0.00 0.00 0.000
9/25/2017 5:21:29a 279 5 15 19 17 79.5 71.9 29.85 0.48 0.0 0 0.00 0.00 0.00 0.000
9/25/2017 5:22:29a 288 9 15 19 17 79.5 72.0 29.85 0.48 0.0 0 0.00 0.00 0.00 0.000
9/25/2017 5:24:30a 7 4 15 19 17 79.5 72.0 29.85 0.48 0.0 0 0.00 0.00 0.00 0.000
9/25/2017 5:25:31a 340 8 15 19 17 79.5 72.0 29.85 0.48 0.0 0 0.00 0.00 0.00 0.000
9/25/2017 5:26:34a 340 8 15 19 17 79.5 72.0 29.85 0.48 0.0 0 0.00 0.00 0.00 0.000
9/25/2017 5:27:35a 301 6 15 19 17 79.5 72.0 29.85 0.48 0.0 0 0.00 0.00 0.00 0.000
9/25/2017 5:28:35a 297 4 15 19 17 79.5 72.0 29.85 0.48 0.0 0 0.00 0.00 0.00 0.000
9/25/2017 5:29:38a 330 10 15 19 17 79.5 72.0 29.85 0.48 0.0 0 0.00 0.00 0.00 0.000
9/25/2017 5:30:42a 335 4 15 19 17 79.5 72.0 29.85 0.48 0.0 0 0.00 0.00 0.00 0.000
9/25/2017 5:31:42a 335 4 15 19 17 79.5 72.0 29.85 0.48 0.0 0 0.00 0.00 0.00 0.000
9/25/2017 5:32:42a 3 19 20 19 17 79.5 72.0 29.85 0.48 0.0 0 0.00 0.00 0.00 0.000
9/25/2017 5:33:43a 311 7 22 19 17 79.5 72.0 29.86 0.48 0.0 0 0.00 0.00 0.00 0.000
9/25/2017 5:34:44a 320 12 22 19 17 79.5 72.0 29.85 0.48 0.0 0 0.00 0.00 0.00 0.000
9/25/2017 5:35:44a 325 18 22 19 17 79.5 72.0 29.85 0.48 0.0 0 0.00 0.00 0.00 0.000
9/25/2017 5:36:44a 325 18 22 19 17 79.5 72.0 29.85 0.48 0.0 0 0.00 0.00 0.00 0.000
9/25/2017 5:37:45a 321 12 22 19 17 79.5 72.0 29.85 0.48 0.0 0 0.00 0.00 0.00 0.000
9/25/2017 5:38:45a 303 15 22 19 16 79.5 72.0 29.85 0.48 0.0 0 0.00 0.00 0.00 0.000
9/25/2017 5:39:48a 316 12 22 19 17 79.5 71.9 29.86 0.48 0.0 0 0.00 0.00 0.00 0.000
9/25/2017 5:40:52a 312 14 22 19 17 79.5 71.9 29.86 0.48 0.0 0 0.00 0.00 0.00 0.000
9/25/2017 5:41:52a 312 14 22 19 17 79.5 71.9 29.86 0.48 0.0 0 0.00 0.00 0.00 0.000
9/25/2017 5:42:53a 341 15 22 19 17 79.5 71.9 29.85 0.48 0.0 0 0.00 0.00 0.00 0.000
9/25/2017 5:43:54a 330 14 22 19 17 79.5 71.9 29.85 0.48 0.0 0 0.00 0.00 0.00 0.000
9/25/2017 5:44:57a 313 11 22 19 17 79.5 72.0 29.85 0.48 0.0 0 0.00 0.00 0.00 0.000
9/25/2017 5:45:58a 325 9 22 19 17 79.5 72.0 29.85 0.48 0.0 0 0.00 0.00 0.00 0.000
9/25/2017 5:46:58a 325 9 22 19 17 79.5 72.0 29.85 0.48 0.0 0 0.00 0.00 0.00 0.000
9/25/2017 5:50:06a 315 18 19 19 17 79.3 71.8 29.85 0.48 0.0 0 0.00 0.00 0.00 0.000
9/25/2017 5:51:06a 315 18 19 19 17 79.3 71.8 29.85 0.48 0.0 0 0.00 0.00 0.00 0.000
9/25/2017 5:52:07a 315 18 19 19 17 79.3 71.8 29.85 0.48 0.0 0 0.00 0.00 0.00 0.000
9/25/2017 5:53:07a 301 14 19 19 17 79.3 71.9 29.86 0.48 0.0 0 0.00 0.00 0.00 0.000
9/25/2017 5:54:07a 319 14 19 19 17 79.3 71.9 29.85 0.48 0.0 0 0.00 0.00 0.00 0.000
9/25/2017 5:55:11a 310 14 19 19 17 79.3 71.9 29.85 0.48 0.0 0 0.00 0.00 0.00 0.000
9/25/2017 5:56:11a 310 14 19 19 17 79.3 71.9 29.85 0.48 0.0 0 0.00 0.00 0.00 0.000
9/25/2017 5:57:11a 310 14 19 19 17 79.3 71.9 29.85 0.48 0.0 0 0.00 0.00 0.00 0.000
9/25/2017 5:58:12a 2 18 19 19 17 79.3 71.9 29.85 0.48 0.0 0 0.00 0.00 0.00 0.000
9/25/2017 5:59:15a 330 7 21 19 17 79.3 71.8 29.86 0.48 0.0 0 0.00 0.00 0.00 0.000
9/25/2017 6:00:21a 15 9 21 19 17 79.3 71.8 29.85 0.48 0.0 0 0.00 0.00 0.00 0.000
9/25/2017 6:01:24a 15 9 21 19 17 79.3 71.8 29.85 0.48 0.0 0 0.00 0.00 0.00 0.000
9/25/2017 6:02:27a 15 9 21 19 17 79.3 71.8 29.85 0.48 0.0 0 0.00 0.00 0.00 0.000
9/25/2017 6:03:28a 311 13 13 19 17 79.3 71.6 29.86 0.48 0.0 0 0.00 0.00 0.00 0.000
9/25/2017 6:04:28a 303 17 21 19 17 79.3 71.6 29.86 0.48 0.0 0 0.00 0.00 0.00 0.000
9/25/2017 6:05:32a 295 11 21 19 17 79.3 71.6 29.86 0.48 0.0 0 0.00 0.00 0.00 0.000
9/25/2017 6:06:32a 295 11 21 19 17 79.3 71.6 29.86 0.48 0.0 0 0.00 0.00 0.00 0.000
9/25/2017 6:07:39a 325 13 21 19 17 79.1 71.6 29.86 0.48 0.0 0 0.00 0.00 0.00 0.000
9/25/2017 6:08:39a 308 8 21 19 17 79.1 71.6 29.86 0.48 0.0 0 0.00 0.00 0.00 0.000
9/25/2017 6:09:39a 330 14 21 19 17 79.1 71.7 29.86 0.48 0.0 0 0.00 0.00 0.00 0.000
9/25/2017 6:10:43a 318 14 21 19 17 79.1 71.7 29.86 0.48 0.0 0 0.00 0.00 0.00 0.000
9/25/2017 6:11:46a 318 14 21 19 17 79.1 71.7 29.86 0.48 0.0 0 0.00 0.00 0.00 0.000
9/25/2017 6:12:50a 313 5 21 19 17 79.1 71.8 29.86 0.48 0.0 0 0.00 0.00 0.00 0.000
9/25/2017 6:13:53a 325 15 21 19 17 79.1 71.8 29.86 0.48 0.0 0 0.00 0.00 0.00 0.000
9/25/2017 6:14:54a 293 13 21 19 17 79.1 71.8 29.86 0.48 0.0 0 0.00 0.00 0.00 0.000
9/25/2017 6:15:55a 296 9 21 19 17 79.1 71.8 29.86 0.48 0.0 0 0.00 0.00 0.00 0.000
9/25/2017 6:16:55a 296 9 21 19 17 79.1 71.8 29.86 0.48 0.0 0 0.00 0.00 0.00 0.000
9/25/2017 6:18:56a 2 7 14 19 17 79.1 71.7 29.87 0.48 0.0 0 0.00 0.00 0.00 0.000
9/25/2017 6:19:56a 344 11 20 19 17 79.1 71.6 29.87 0.48 0.0 0 0.00 0.00 0.00 0.000
9/25/2017 6:20:56a 318 14 20 19 17 79.1 71.6 29.87 0.48 0.0 0 0.00 0.00 0.00 0.000
9/25/2017 6:21:57a 318 14 20 19 17 79.1 71.6 29.87 0.48 0.0 0 0.00 0.00 0.00 0.000
9/25/2017 6:23:00a 339 11 20 19 17 79.1 71.6 29.86 0.48 0.0 0 0.00 0.00 0.00 0.000
9/25/2017 6:24:01a 335 18 20 19 17 79.1 71.6 29.86 0.48 0.0 0 0.00 0.00 0.00 0.000
9/25/2017 6:26:01a 330 17 21 19 17 79.1 71.6 29.86 0.48 0.0 0 0.00 0.00 0.00 0.000
9/25/2017 6:27:02a 330 17 21 19 17 79.1 71.6 29.86 0.48 0.0 0 0.00 0.00 0.00 0.000
9/25/2017 6:28:05a 284 11 21 19 17 79.1 71.5 29.86 0.48 0.0 0 0.00 0.00 0.00 0.000
9/25/2017 6:29:06a 330 5 21 19 17 79.1 71.5 29.86 0.48 0.0 0 0.00 0.00 0.00 0.000
9/25/2017 6:30:09a 335 1 21 19 17 79.1 71.5 29.86 0.48 0.0 0 0.00 0.00 0.00 0.000
9/25/2017 6:31:12a 335 1 21 19 17 79.1 71.5 29.86 0.48 0.0 0 0.00 0.00 0.00 0.000
9/25/2017 6:32:13a 335 1 21 19 17 79.1 71.5 29.86 0.48 0.0 0 0.00 0.00 0.00 0.000
9/25/2017 6:34:18a 350 14 15 19 17 79.1 71.4 29.87 0.48 0.0 0 0.00 0.00 0.00 0.000
9/25/2017 6:35:21a 325 16 19 19 17 79.1 71.4 29.87 0.48 0.0 0 0.00 0.00 0.00 0.000
9/25/2017 6:36:21a 325 16 19 19 17 79.1 71.4 29.87 0.48 0.0 0 0.00 0.00 0.00 0.000
9/25/2017 6:37:22a 325 16 19 19 17 79.1 71.4 29.87 0.48 0.0 0 0.00 0.00 0.00 0.000
9/25/2017 6:38:25a 314 16 19 19 17 79.1 71.5 29.87 0.48 0.0 0 0.00 0.00 0.00 0.000
9/25/2017 6:39:25a 297 13 19 19 17 79.1 71.5 29.87 0.48 0.0 0 0.00 0.00 0.00 0.000
9/25/2017 6:40:26a 306 16 19 19 17 79.1 71.5 29.87 0.48 0.0 0 0.00 0.00 0.00 0.000
9/25/2017 6:41:26a 306 16 19 19 17 79.1 71.5 29.87 0.48 0.0 0 0.00 0.00 0.00 0.000
9/25/2017 6:42:33a 306 16 19 19 17 79.1 71.5 29.87 0.48 0.0 0 0.00 0.00 0.00 0.000
9/25/2017 6:43:33a 316 19 21 19 17 79.1 71.6 29.87 0.48 0.0 5 0.00 0.00 0.00 0.000
9/25/2017 6:44:33a 315 18 21 19 17 79.1 71.6 29.87 0.48 0.0 5 0.00 0.00 0.00 0.000
9/25/2017 6:45:37a 321 19 21 19 17 79.1 71.6 29.87 0.48 0.0 5 0.00 0.00 0.00 0.000
9/25/2017 6:46:46a 321 19 21 19 17 79.1 71.6 29.87 0.48 0.0 5 0.00 0.00 0.00 0.000
9/25/2017 6:47:47a 321 19 21 19 17 79.1 71.6 29.87 0.48 0.0 5 0.00 0.00 0.00 0.000
9/25/2017 6:48:47a 330 7 17 19 17 79.1 71.6 29.87 0.48 0.0 7 0.00 0.00 0.00 0.000
9/25/2017 6:49:51a 306 14 21 19 17 79.1 71.6 29.87 0.48 0.0 7 0.00 0.00 0.00 0.000
9/25/2017 6:50:51a 301 12 21 19 17 79.1 71.6 29.87 0.48 0.0 9 0.00 0.00 0.00 0.000
9/25/2017 6:51:51a 301 12 21 19 17 79.1 71.6 29.87 0.48 0.0 9 0.00 0.00 0.00 0.000
9/25/2017 6:52:55a 292 9 21 19 17 79.1 71.5 29.87 0.48 0.0 9 0.00 0.00 0.00 0.000
9/25/2017 6:53:55a 335 17 21 19 17 79.1 71.5 29.87 0.48 0.0 11 0.00 0.00 0.00 0.000
9/25/2017 6:54:56a 325 21 23 19 17 79.1 71.5 29.87 0.48 0.0 11 0.00 0.00 0.00 0.000
9/25/2017 6:56:02a 335 17 23 19 17 79.1 71.5 29.87 0.48 0.0 11 0.00 0.00 0.00 0.000
9/25/2017 6:57:03a 335 17 23 19 17 79.1 71.5 29.87 0.48 0.0 11 0.00 0.00 0.00 0.000
9/25/2017 7:00:04a 287 9 23 18 17 79.1 71.4 29.87 0.48 0.0 25 0.00 0.00 0.00 0.000
9/25/2017 7:01:04a 287 9 23 18 17 79.1 71.4 29.87 0.48 0.0 25 0.00 0.00 0.00 0.000
9/25/2017 7:02:05a 287 9 23 18 17 79.1 71.4 29.87 0.48 0.0 25 0.00 0.00 0.00 0.000
9/25/2017 7:03:05a 330 11 11 18 17 79.1 71.4 29.88 0.48 0.0 19 0.00 0.00 0.00 0.000
9/25/2017 7:04:05a 320 13 18 18 17 79.1 71.4 29.88 0.48 0.0 23 0.00 0.00 0.00 0.000
9/25/2017 7:05:06a 330 5 18 18 17 79.1 71.4 29.88 0.48 0.0 26 0.00 0.00 0.00 0.000
9/25/2017 7:06:06a 330 5 18 18 17 79.1 71.4 29.88 0.48 0.0 26 0.00 0.00 0.00 0.000
9/25/2017 7:07:07a 330 5 18 18 17 79.1 71.4 29.88 0.48 0.0 26 0.00 0.00 0.00 0.000
9/25/2017 7:08:07a 312 19 19 18 17 78.9 71.4 29.88 0.48 0.0 37 0.00 0.00 0.00 0.000
9/25/2017 7:09:07a 310 16 19 18 17 78.9 71.5 29.88 0.48 0.0 39 0.00 0.00 0.00 0.000
9/25/2017 7:10:07a 340 14 19 18 17 78.9 71.5 29.88 0.48 0.0 40 0.00 0.00 0.00 0.000
9/25/2017 7:11:13a 340 14 19 18 17 78.9 71.5 29.88 0.48 0.0 40 0.00 0.00 0.00 0.000
9/25/2017 7:12:14a 340 14 19 18 17 78.9 71.5 29.88 0.48 0.0 40 0.00 0.00 0.00 0.000
9/25/2017 7:13:14a 339 11 19 18 17 78.9 71.6 29.88 0.48 0.0 32 0.00 0.00 0.00 0.000
9/25/2017 7:14:20a 330 13 19 18 17 78.9 71.6 29.88 0.48 0.0 28 0.00 0.00 0.00 0.000
9/25/2017 7:15:24a 346 13 19 18 17 78.9 71.6 29.88 0.48 0.0 30 0.00 0.00 0.00 0.000
9/25/2017 7:16:24a 346 13 19 18 17 78.9 71.6 29.88 0.48 0.0 30 0.00 0.00 0.00 0.000
9/25/2017 7:17:28a 346 13 19 18 17 78.9 71.6 29.88 0.48 0.0 30 0.00 0.00 0.00 0.000
9/25/2017 7:18:28a 355 5 18 18 17 78.9 71.4 29.89 0.48 0.0 42 0.00 0.00 0.00 0.000
9/25/2017 7:19:31a 358 10 18 18 17 78.9 71.4 29.88 0.48 0.0 56 0.00 0.00 0.00 0.000
9/25/2017 7:20:32a 347 7 18 18 17 78.9 71.4 29.88 0.48 0.0 62 0.00 0.00 0.00 0.000
9/25/2017 7:21:35a 347 7 18 18 17 78.9 71.4 29.88 0.48 0.0 62 0.00 0.00 0.00 0.000
9/25/2017 7:22:36a 340 5 18 18 17 78.9 71.4 29.88 0.48 0.0 44 0.00 0.00 0.00 0.000
9/25/2017 7:23:36a 325 7 18 18 17 78.9 71.4 29.88 0.48 0.0 44 0.00 0.00 0.00 0.000
9/25/2017 7:24:36a 104 4 18 18 17 78.9 71.4 29.88 0.48 0.0 30 0.00 0.00 0.00 0.000
9/25/2017 7:25:37a 300 4 18 18 17 78.9 71.4 29.88 0.48 0.0 32 0.00 0.00 0.00 0.000
9/25/2017 7:26:37a 300 4 18 18 17 78.9 71.4 29.88 0.48 0.0 32 0.00 0.00 0.00 0.000
9/25/2017 7:27:39a 300 4 18 18 17 78.9 71.4 29.88 0.48 0.0 32 0.00 0.00 0.00 0.000
9/25/2017 7:28:39a 349 10 18 18 17 78.9 71.5 29.89 0.48 0.0 72 0.00 0.00 0.00 0.000
9/25/2017 7:29:39a 330 4 18 18 17 79.1 71.6 29.89 0.48 0.0 88 0.00 0.00 0.00 0.000
9/25/2017 7:30:46a 320 5 18 18 17 79.1 71.6 29.89 0.48 0.0 105 0.00 0.00 0.00 0.000
9/25/2017 7:31:46a 320 5 18 18 17 79.1 71.6 29.89 0.48 0.0 105 0.00 0.00 0.00 0.000
9/25/2017 7:32:47a 330 5 7 18 17 79.1 71.6 29.88 0.48 0.0 125 0.00 0.00 0.00 0.000
9/25/2017 7:33:47a 325 13 18 18 17 79.1 71.6 29.89 0.48 0.0 130 0.00 0.00 0.00 0.000
9/25/2017 7:34:48a 330 9 18 18 17 79.1 71.6 29.89 0.48 0.0 134 0.00 0.00 0.00 0.000
9/25/2017 7:35:48a 325 17 18 18 17 79.1 71.7 29.89 0.48 0.0 134 0.00 0.00 0.00 0.000
9/25/2017 7:36:49a 325 17 18 18 17 79.1 71.7 29.89 0.48 0.0 134 0.00 0.00 0.00 0.000
9/25/2017 7:37:49a 310 15 20 18 17 79.1 71.8 29.88 0.48 0.0 144 0.00 0.00 0.00 0.000
9/25/2017 7:38:53a 358 16 20 18 17 79.1 71.8 29.89 0.48 0.0 144 0.00 0.00 0.00 0.000
9/25/2017 7:39:56a 325 12 20 18 17 79.1 71.9 29.88 0.48 0.0 146 0.00 0.00 0.00 0.000
9/25/2017 7:40:57a 335 10 20 18 17 79.1 71.9 29.88 0.48 0.0 146 0.00 0.00 0.00 0.000
9/25/2017 7:41:57a 335 10 20 18 17 79.1 71.9 29.88 0.48 0.0 146 0.00 0.00 0.00 0.000
9/25/2017 7:42:57a 310 15 20 18 17 79.1 72.1 29.88 0.48 0.0 153 0.00 0.00 0.00 0.000
9/25/2017 7:44:01a 345 17 21 18 17 79.1 72.2 29.88 0.48 0.0 153 0.00 0.00 0.00 0.000
9/25/2017 7:45:04a 11 9 21 18 17 79.1 72.2 29.89 0.48 0.0 162 0.00 0.00 0.00 0.000
9/25/2017 7:46:05a 11 9 21 18 17 79.1 72.2 29.89 0.48 0.0 162 0.00 0.00 0.00 0.000
9/25/2017 7:47:05a 11 9 21 18 17 79.1 72.2 29.89 0.48 0.0 162 0.00 0.00 0.00 0.000
9/25/2017 7:48:05a 325 23 23 18 17 79.1 72.5 29.88 0.48 0.0 171 0.00 0.00 0.00 0.000
9/25/2017 7:49:06a 347 13 23 18 17 79.1 72.6 29.88 0.48 0.0 172 0.00 0.00 0.00 0.000
9/25/2017 7:50:06a 318 15 23 18 17 79.1 72.7 29.88 0.48 0.0 176 0.00 0.00 0.00 0.000
9/25/2017 7:51:10a 318 15 23 18 17 79.1 72.7 29.88 0.48 0.0 176 0.00 0.00 0.00 0.000
9/25/2017 7:52:10a 318 15 23 18 17 79.1 72.7 29.88 0.48 0.0 176 0.00 0.00 0.00 0.000
9/25/2017 7:53:10a 316 6 23 18 17 79.1 72.9 29.89 0.48 0.0 186 0.00 0.00 0.00 0.000
9/25/2017 7:54:11a 42 5 23 18 17 79.1 72.9 29.88 0.48 0.0 186 0.00 0.00 0.00 0.000
9/25/2017 7:55:11a 330 11 23 18 17 79.1 72.9 29.89 0.48 0.0 190 0.00 0.00 0.00 0.000
9/25/2017 7:56:12a 330 11 23 18 17 79.1 72.9 29.89 0.48 0.0 190 0.00 0.00 0.00 0.000
9/25/2017 7:57:12a 330 11 23 18 17 79.1 72.9 29.89 0.48 0.0 190 0.00 0.00 0.00 0.000
9/25/2017 7:58:12a 325 23 24 18 17 79.1 73.1 29.88 0.48 0.0 199 0.00 0.00 0.00 0.000
9/25/2017 7:59:13a 325 12 24 18 17 79.1 73.1 29.88 0.48 0.0 204 0.00 0.00 0.00 0.000
9/25/2017 8:00:13a 330 10 24 18 17 79.1 73.1 29.88 0.48 0.0 207 0.00 0.00 0.00 0.000
9/25/2017 8:01:13a 330 10 24 18 17 79.1 73.1 29.88 0.48 0.0 207 0.00 0.00 0.00 0.000
9/25/2017 8:02:14a 330 10 24 18 17 79.1 73.1 29.88 0.48 0.0 207 0.00 0.00 0.00 0.000
9/25/2017 8:03:14a 320 12 18 18 17 79.1 73.2 29.89 0.48 0.0 214 0.00 0.00 0.00 0.000
9/25/2017 8:04:15a 330 4 18 18 17 79.1 73.2 29.89 0.48 0.0 220 0.00 0.00 0.00 0.000
9/25/2017 8:05:15a 325 15 18 18 17 79.1 73.3 29.89 0.48 0.0 220 0.00 0.00 0.00 0.000
9/25/2017 8:06:19a 325 15 18 18 17 79.1 73.3 29.89 0.48 0.0 220 0.00 0.00 0.00 0.000
9/25/2017 8:07:22a 325 15 18 18 17 79.1 73.3 29.89 0.48 0.0 220 0.00 0.00 0.00 0.000
9/25/2017 8:08:22a 330 10 18 18 17 79.3 73.3 29.89 0.48 0.0 227 0.00 0.00 0.00 0.000
9/25/2017 8:10:26a 306 14 20 18 16 79.3 73.3 29.89 0.48 0.0 236 0.00 0.00 0.00 0.000
9/25/2017 8:11:27a 306 14 20 18 16 79.3 73.3 29.89 0.48 0.0 236 0.00 0.00 0.00 0.000
9/25/2017 8:12:30a 306 14 20 18 16 79.3 73.3 29.89 0.48 0.0 236 0.00 0.00 0.00 0.000
9/25/2017 8:13:33a 310 25 25 18 17 79.3 73.3 29.88 0.48 0.5 250 0.00 0.00 0.00 0.000
9/25/2017 8:14:34a 330 15 25 18 17 79.3 73.3 29.89 0.48 0.5 251 0.00 0.00 0.00 0.000
9/25/2017 8:15:34a 330 12 25 18 17 79.3 73.3 29.89 0.48 0.5 251 0.00 0.00 0.00 0.000
9/25/2017 8:16:38a 330 12 25 18 17 79.3 73.3 29.89 0.48 0.5 251 0.00 0.00 0.00 0.000
9/25/2017 8:17:38a 314 16 25 18 16 79.3 73.4 29.89 0.48 0.5 260 0.00 0.00 0.00 0.000
9/25/2017 8:18:38a 309 18 21 18 17 79.3 73.4 29.89 0.48 0.5 264 0.00 0.00 0.00 0.000
9/25/2017 8:19:39a 330 14 27 18 16 79.3 73.4 29.89 0.48 0.5 269 0.00 0.00 0.00 0.000
9/25/2017 8:20:39a 313 16 27 18 16 79.3 73.4 29.89 0.48 0.5 269 0.00 0.00 0.00 0.000
9/25/2017 8:21:40a 313 16 27 18 16 79.3 73.4 29.89 0.48 0.5 269 0.00 0.00 0.00 0.000
9/25/2017 8:22:43a 314 17 27 18 16 79.3 73.4 29.88 0.48 0.6 276 0.00 0.00 0.00 0.000
9/25/2017 8:23:47a 319 25 27 18 16 79.3 73.4 29.89 0.48 0.6 276 0.00 0.00 0.00 0.000
9/25/2017 8:24:47a 330 12 27 18 17 79.1 73.4 29.88 0.48 0.6 285 0.00 0.00 0.00 0.000
9/25/2017 8:25:51a 301 9 27 18 17 79.1 73.4 29.88 0.48 0.6 285 0.00 0.00 0.00 0.000
9/25/2017 8:26:51a 301 9 27 18 17 79.1 73.4 29.88 0.48 0.6 285 0.00 0.00 0.00 0.000
9/25/2017 8:27:54a 318 18 27 18 17 78.9 73.5 29.88 0.48 0.6 294 0.00 0.00 0.00 0.000
9/25/2017 8:28:58a 297 24 27 18 17 78.9 73.5 29.88 0.48 0.6 299 0.00 0.00 0.00 0.000
9/25/2017 8:29:58a 316 22 28 18 16 78.8 73.6 29.88 0.48 0.6 301 0.00 0.00 0.00 0.000
9/25/2017 8:31:02a 325 19 28 18 16 78.8 73.6 29.88 0.48 0.6 301 0.00 0.00 0.00 0.000
9/25/2017 8:32:02a 325 19 28 18 16 78.8 73.6 29.88 0.48 0.6 301 0.00 0.00 0.00 0.000
9/25/2017 8:33:05a 325 19 19 18 16 78.6 73.6 29.88 0.48 0.7 309 0.00 0.00 0.00 0.000
9/25/2017 8:35:08a 306 13 20 18 17 78.4 73.6 29.88 0.48 0.7 318 0.00 0.00 0.00 0.000
9/25/2017 8:37:12a 306 13 20 18 17 78.4 73.6 29.88 0.48 0.7 318 0.00 0.00 0.00 0.000
9/25/2017 8:38:12a 330 15 20 18 17 78.2 73.8 29.88 0.48 0.7 325 0.00 0.00 0.00 0.000
9/25/2017 8:39:12a 354 16 20 18 16 78.2 73.8 29.88 0.48 0.8 332 0.00 0.00 0.00 0.000
9/25/2017 8:40:13a 299 10 20 18 16 78.1 73.9 29.88 0.48 0.8 332 0.00 0.00 0.00 0.000
9/25/2017 8:41:13a 299 10 20 18 16 78.1 73.9 29.88 0.48 0.8 332 0.00 0.00 0.00 0.000
9/25/2017 8:42:14a 299 10 20 18 16 78.1 73.9 29.88 0.48 0.8 332 0.00 0.00 0.00 0.000
9/25/2017 8:43:14a 325 17 25 19 16 78.1 74.0 29.88 0.48 0.8 343 0.00 0.00 0.00 0.000
9/25/2017 8:44:14a 345 11 25 19 16 78.1 74.0 29.88 0.48 0.8 343 0.00 0.00 0.00 0.000
9/25/2017 8:45:21a 311 12 25 19 16 77.9 74.1 29.88 0.48 0.8 350 0.00 0.00 0.00 0.000
9/25/2017 8:46:24a 311 12 25 19 16 77.9 74.1 29.88 0.48 0.8 350 0.00 0.00 0.00 0.000
9/25/2017 8:47:24a 311 12 25 19 16 77.9 74.1 29.88 0.48 0.8 350 0.00 0.00 0.00 0.000
9/25/2017 8:48:25a 295 18 18 19 16 77.9 74.2 29.88 0.48 0.9 360 0.00 0.00 0.00 0.000
9/25/2017 8:49:25a 310 18 25 19 16 77.7 74.3 29.88 0.48 0.9 364 0.00 0.00 0.00 0.000
9/25/2017 8:50:28a 312 20 25 19 16 77.7 74.3 29.88 0.48 0.9 366 0.00 0.00 0.00 0.000
9/25/2017 8:51:29a 312 20 25 19 16 77.7 74.3 29.88 0.48 0.9 366 0.00 0.00 0.00 0.000
9/25/2017 8:52:33a 325 22 25 19 16 77.7 74.4 29.88 0.48 0.9 374 0.00 0.00 0.00 0.000
9/25/2017 8:53:33a 325 16 25 19 16 77.7 74.4 29.88 0.48 1.0 378 0.00 0.00 0.00 0.000
9/25/2017 8:54:33a 335 19 25 19 16 77.9 74.5 29.88 0.48 1.0 381 0.00 0.00 0.00 0.000
9/25/2017 8:55:37a 315 17 25 19 16 77.9 74.4 29.88 0.48 1.0 381 0.00 0.00 0.00 0.000
9/25/2017 8:56:37a 315 17 25 19 16 77.9 74.4 29.88 0.48 1.0 381 0.00 0.00 0.00 0.000
9/25/2017 8:57:38a 325 11 25 19 16 77.9 74.5 29.88 0.48 1.0 390 0.00 0.00 0.00 0.000
9/25/2017 8:58:41a 319 20 28 19 16 77.9 74.6 29.88 0.48 1.0 394 0.00 0.00 0.00 0.000
9/25/2017 8:59:41a 299 17 28 19 16 77.9 74.6 29.88 0.48 1.1 397 0.00 0.00 0.00 0.000
9/25/2017 9:00:40a 303 19 28 19 16 77.9 74.7 29.88 0.48 1.1 401 0.00 0.00 0.00 0.000
9/25/2017 9:01:44a 303 19 28 19 16 77.9 74.7 29.88 0.48 1.1 401 0.00 0.00 0.00 0.000
9/25/2017 9:02:46a 335 13 16 19 16 77.9 74.7 29.88 0.48 1.1 408 0.00 0.00 0.00 0.000
9/25/2017 9:03:46a 314 24 24 19 16 77.9 74.7 29.88 0.48 1.1 413 0.00 0.00 0.00 0.000
9/25/2017 9:04:47a 335 13 26 19 16 77.9 74.8 29.88 0.48 1.1 413 0.00 0.00 0.00 0.000
9/25/2017 9:05:47a 330 11 26 19 16 77.9 74.8 29.88 0.48 1.1 418 0.00 0.00 0.00 0.000
9/25/2017 9:06:51a 330 11 26 19 16 77.9 74.8 29.88 0.48 1.1 418 0.00 0.00 0.00 0.000
9/25/2017 9:07:51a 342 23 26 19 16 77.9 74.9 29.88 0.48 1.2 427 0.00 0.00 0.00 0.000
9/25/2017 9:08:51a 316 29 31 19 16 77.9 74.9 29.88 0.48 1.2 427 0.00 0.00 0.00 0.000
9/25/2017 9:09:52a 319 17 31 19 16 77.9 75.0 29.88 0.48 1.2 432 0.00 0.00 0.00 0.000
9/25/2017 9:10:55a 320 20 31 19 16 77.9 75.0 29.88 0.48 1.2 434 0.00 0.00 0.00 0.000
9/25/2017 9:11:56a 320 20 31 19 16 77.9 75.0 29.88 0.48 1.2 434 0.00 0.00 0.00 0.000
9/25/2017 9:12:59a 2 14 31 19 16 77.9 75.2 29.88 0.48 1.2 441 0.00 0.00 0.00 0.000
9/25/2017 9:13:59a 312 16 31 19 16 77.9 75.2 29.88 0.48 1.3 443 0.00 0.00 0.00 0.000
9/25/2017 9:15:00a 330 15 31 19 16 77.9 75.3 29.88 0.48 1.3 446 0.00 0.00 0.00 0.000
9/25/2017 9:16:03a 325 19 31 19 16 77.9 75.3 29.88 0.48 1.3 446 0.00 0.00 0.00 0.000
9/25/2017 9:17:03a 325 19 31 19 16 77.9 75.3 29.88 0.48 1.3 446 0.00 0.00 0.00 0.000
9/25/2017 9:18:04a 318 16 16 19 16 77.9 75.5 29.88 0.48 1.3 459 0.00 0.00 0.00 0.000
9/25/2017 9:19:04a 308 23 25 19 16 77.9 75.5 29.88 0.48 1.3 461 0.00 0.00 0.00 0.000
9/25/2017 9:21:07a 315 18 26 19 16 77.9 75.6 29.88 0.48 1.3 462 0.00 0.00 0.00 0.000
9/25/2017 9:22:08a 315 18 26 19 16 77.9 75.6 29.88 0.48 1.3 462 0.00 0.00 0.00 0.000
9/25/2017 9:23:11a 335 21 29 19 16 77.9 75.6 29.87 0.48 1.4 476 0.00 0.00 0.00 0.000
9/25/2017 9:24:15a 355 21 29 19 16 77.9 75.6 29.88 0.48 1.4 478 0.00 0.00 0.00 0.000
9/25/2017 9:25:15a 339 24 31 19 16 77.9 75.5 29.88 0.48 1.4 478 0.00 0.00 0.00 0.000
9/25/2017 9:26:22a 339 24 31 19 16 77.9 75.5 29.88 0.48 1.4 478 0.00 0.00 0.00 0.000
9/25/2017 9:27:22a 339 24 31 19 16 77.9 75.5 29.88 0.48 1.4 478 0.00 0.00 0.00 0.000
9/25/2017 9:28:22a 316 16 31 19 16 77.9 75.5 29.88 0.48 1.5 490 0.00 0.00 0.00 0.000
9/25/2017 9:29:23a 354 23 33 19 16 77.9 75.6 29.88 0.48 1.5 492 0.00 0.00 0.00 0.000
9/25/2017 9:30:26a 348 20 33 19 16 77.9 75.6 29.88 0.48 1.5 497 0.00 0.00 0.00 0.000
9/25/2017 9:31:26a 348 20 33 19 16 77.9 75.6 29.88 0.48 1.5 497 0.00 0.00 0.00 0.000
9/25/2017 9:32:27a 348 20 33 19 16 77.9 75.6 29.88 0.48 1.5 497 0.00 0.00 0.00 0.000
9/25/2017 9:33:27a 335 17 19 19 16 77.9 75.7 29.88 0.48 1.6 508 0.00 0.00 0.00 0.000
9/25/2017 9:35:31a 340 19 21 19 16 77.9 75.8 29.88 0.48 1.6 513 0.00 0.00 0.00 0.000
9/25/2017 9:36:31a 340 19 21 19 16 77.9 75.8 29.88 0.48 1.6 513 0.00 0.00 0.00 0.000
9/25/2017 9:37:32a 340 19 21 19 16 77.9 75.8 29.88 0.48 1.6 513 0.00 0.00 0.00 0.000
9/25/2017 9:38:32a 318 20 21 19 16 77.9 75.9 29.88 0.48 1.7 522 0.00 0.00 0.00 0.000
9/25/2017 9:39:36a 315 20 23 19 16 77.9 76.0 29.88 0.48 1.7 524 0.00 0.00 0.00 0.000
9/25/2017 9:40:36a 343 15 23 19 16 77.9 76.0 29.88 0.48 1.7 524 0.00 0.00 0.00 0.000
9/25/2017 9:41:36a 343 15 23 19 16 77.9 76.0 29.88 0.48 1.7 524 0.00 0.00 0.00 0.000
9/25/2017 9:43:40a 319 22 25 19 16 77.9 76.1 29.88 0.48 1.8 538 0.00 0.00 0.00 0.000
9/25/2017 9:44:41a 296 16 25 19 16 77.9 76.1 29.88 0.48 1.8 541 0.00 0.00 0.00 0.000
9/25/2017 9:46:41a 310 18 25 19 16 77.9 76.1 29.88 0.48 1.8 543 0.00 0.00 0.00 0.000
9/25/2017 9:47:42a 325 24 26 19 16 77.9 76.1 29.87 0.48 1.8 550 0.00 0.00 0.00 0.000
9/25/2017 9:48:42a 297 22 30 19 16 77.9 76.2 29.87 0.48 1.9 554 0.00 0.00 0.00 0.000
9/25/2017 9:49:48a 340 22 30 19 16 77.9 76.2 29.88 0.48 1.9 557 0.00 0.00 0.00 0.000
9/25/2017 9:50:52a 325 20 30 19 16 77.9 76.3 29.88 0.48 1.9 557 0.00 0.00 0.00 0.000
9/25/2017 9:51:52a 325 20 30 19 16 77.9 76.3 29.88 0.48 1.9 557 0.00 0.00 0.00 0.000
9/25/2017 9:52:55a 318 21 30 19 16 77.9 76.3 29.87 0.48 1.9 568 0.00 0.00 0.00 0.000
9/25/2017 9:53:56a 335 23 30 19 16 77.9 76.3 29.87 0.48 2.0 570 0.00 0.00 0.00 0.000
9/25/2017 9:54:59a 320 21 30 19 16 78.1 76.3 29.88 0.48 2.0 571 0.00 0.00 0.00 0.000
9/25/2017 9:56:00a 320 21 30 19 16 78.1 76.3 29.88 0.48 2.0 571 0.00 0.00 0.00 0.000
9/25/2017 9:57:00a 320 21 30 19 16 78.1 76.3 29.88 0.48 2.0 571 0.00 0.00 0.00 0.000
9/25/2017 9:58:01a 325 11 30 19 16 78.1 76.4 29.88 0.48 2.1 580 0.00 0.00 0.00 0.000
9/25/2017 9:59:01a 347 12 30 18 16 78.1 76.4 29.87 0.48 2.1 582 0.00 0.00 0.00 0.000
9/25/2017 10:00:04a 325 22 30 18 16 78.1 76.5 29.88 0.48 2.1 584 0.00 0.00 0.00 0.000
9/25/2017 10:01:05a 325 22 30 18 16 78.1 76.5 29.88 0.48 2.1 584 0.00 0.00 0.00 0.000
9/25/2017 10:02:05a 325 22 30 18 16 78.1 76.5 29.88 0.48 2.1 584 0.00 0.00 0.00 0.000
9/25/2017 10:03:06a 330 16 20 18 16 78.1 76.6 29.88 0.48 2.1 596 0.00 0.00 0.00 0.000
9/25/2017 10:04:06a 345 17 20 18 16 78.1 76.7 29.88 0.48 2.2 599 0.00 0.00 0.00 0.000
9/25/2017 10:05:06a 352 19 20 18 16 78.1 76.7 29.88 0.48 2.2 601 0.00 0.00 0.00 0.000
9/25/2017 10:06:13a 352 19 20 18 16 78.1 76.7 29.88 0.48 2.2 601 0.00 0.00 0.00 0.000
9/25/2017 10:07:13a 352 19 20 18 16 78.1 76.7 29.88 0.48 2.2 601 0.00 0.00 0.00 0.000
9/25/2017 10:09:23a 330 13 23 18 16 78.1 76.9 29.88 0.48 2.2 612 0.00 0.00 0.00 0.000
9/25/2017 10:11:27a 301 15 23 18 16 78.1 76.9 29.88 0.48 2.3 613 0.00 0.00 0.00 0.000
9/25/2017 10:12:30a 320 22 23 18 16 78.1 76.9 29.88 0.48 2.3 621 0.00 0.00 0.00 0.000
9/25/2017 10:13:31a 330 19 24 18 16 78.1 76.9 29.88 0.48 2.3 624 0.00 0.00 0.00 0.000
9/25/2017 10:14:34a 325 21 26 18 16 78.1 76.9 29.88 0.48 2.3 628 0.00 0.00 0.00 0.000
9/25/2017 10:15:38a 341 22 28 18 16 78.1 76.9 29.88 0.48 2.4 629 0.00 0.00 0.00 0.000
9/25/2017 10:16:42a 341 22 28 18 16 78.1 76.9 29.88 0.48 2.4 629 0.00 0.00 0.00 0.000
9/25/2017 10:17:42a 312 23 27 18 16 78.1 76.9 29.88 0.48 2.4 633 0.00 0.00 0.00 0.000
9/25/2017 10:18:43a 312 20 27 18 16 78.1 76.9 29.87 0.48 2.4 638 0.00 0.00 0.00 0.000
9/25/2017 10:19:43a 325 23 27 18 16 78.1 76.9 29.88 0.48 2.4 638 0.00 0.00 0.00 0.000
9/25/2017 10:20:43a 325 29 29 18 16 78.1 76.9 29.88 0.48 2.4 642 0.00 0.00 0.00 0.000
9/25/2017 10:21:47a 325 29 29 18 16 78.1 76.9 29.88 0.48 2.4 642 0.00 0.00 0.00 0.000
9/25/2017 10:22:50a 325 7 29 18 16 78.1 77.0 29.88 0.48 2.5 647 0.00 0.00 0.00 0.000
9/25/2017 10:23:50a 295 20 29 18 16 78.1 77.0 29.88 0.48 2.5 650 0.00 0.00 0.00 0.000
9/25/2017 10:24:51a 312 22 29 18 16 78.2 77.0 29.88 0.48 2.5 654 0.00 0.00 0.00 0.000
9/25/2017 10:25:54a 335 19 29 18 16 78.2 77.0 29.88 0.48 2.5 654 0.00 0.00 0.00 0.000
9/25/2017 10:26:54a 335 19 29 18 16 78.2 77.0 29.88 0.48 2.5 654 0.00 0.00 0.00 0.000
9/25/2017 10:27:55a 311 19 29 18 16 78.2 77.1 29.88 0.48 2.6 663 0.00 0.00 0.00 0.000
9/25/2017 10:28:58a 325 20 29 18 16 78.1 77.2 29.88 0.48 2.6 663 0.00 0.00 0.00 0.000
9/25/2017 10:29:59a 317 16 29 18 16 78.1 77.3 29.87 0.48 2.6 666 0.00 0.00 0.00 0.000
9/25/2017 10:31:02a 291 12 29 18 16 78.1 77.3 29.87 0.48 2.6 666 0.00 0.00 0.00 0.000
9/25/2017 10:32:03a 291 12 29 18 16 78.1 77.3 29.87 0.48 2.6 666 0.00 0.00 0.00 0.000
9/25/2017 10:33:03a 310 23 30 18 16 78.1 77.4 29.87 0.48 2.7 675 0.00 0.00 0.00 0.000
9/25/2017 10:34:07a 325 22 30 18 16 78.2 77.4 29.88 0.48 2.7 679 0.00 0.00 0.00 0.000
9/25/2017 10:35:07a 284 12 30 18 15 78.2 77.4 29.88 0.48 2.7 679 0.00 0.00 0.00 0.000
9/25/2017 10:36:10a 284 12 30 18 15 78.2 77.4 29.88 0.48 2.7 679 0.00 0.00 0.00 0.000
9/25/2017 10:37:11a 284 12 30 18 15 78.2 77.4 29.88 0.48 2.7 679 0.00 0.00 0.00 0.000
9/25/2017 10:38:14a 325 17 30 18 16 78.2 77.4 29.87 0.48 2.8 687 0.00 0.00 0.00 0.000
9/25/2017 10:39:14a 325 18 30 18 16 78.2 77.5 29.88 0.48 2.8 689 0.00 0.00 0.00 0.000
9/25/2017 10:40:15a 304 26 30 18 15 78.2 77.5 29.87 0.48 2.8 693 0.00 0.00 0.00 0.000
9/25/2017 10:42:22a 304 26 30 18 15 78.2 77.5 29.87 0.48 2.8 693 0.00 0.00 0.00 0.000
9/25/2017 10:43:25a 325 19 30 18 16 78.2 77.6 29.87 0.48 2.9 701 0.00 0.00 0.00 0.000
9/25/2017 10:45:26a 345 23 30 18 16 78.2 77.7 29.87 0.48 2.9 705 0.00 0.00 0.00 0.000
9/25/2017 10:46:29a 345 23 30 18 16 78.2 77.7 29.87 0.48 2.9 705 0.00 0.00 0.00 0.000
9/25/2017 10:47:30a 325 12 30 18 16 78.2 77.8 29.87 0.48 3.0 714 0.00 0.00 0.00 0.000
9/25/2017 10:48:30a 335 22 23 18 16 78.2 77.8 29.87 0.48 3.0 715 0.00 0.00 0.00 0.000
9/25/2017 10:49:37a 316 22 28 19 15 78.2 77.9 29.87 0.48 3.0 721 0.00 0.00 0.00 0.000
9/25/2017 10:50:40a 314 19 28 19 15 78.2 77.9 29.87 0.48 3.0 722 0.00 0.00 0.00 0.000
9/25/2017 10:51:40a 314 19 28 19 15 78.2 77.9 29.87 0.48 3.0 722 0.00 0.00 0.00 0.000
9/25/2017 10:52:41a 303 22 28 18 16 78.2 78.0 29.87 0.48 3.1 729 0.00 0.00 0.00 0.000
9/25/2017 10:53:41a 301 21 28 18 15 78.2 78.1 29.87 0.48 3.1 733 0.00 0.00 0.00 0.000
9/25/2017 10:54:41a 314 25 28 18 15 78.2 78.1 29.87 0.48 3.1 735 0.00 0.00 0.00 0.000
9/25/2017 10:55:45a 335 22 28 18 16 78.2 78.1 29.87 0.48 3.1 735 0.00 0.00 0.00 0.000
9/25/2017 10:56:45a 335 22 28 18 16 78.2 78.1 29.87 0.48 3.1 735 0.00 0.00 0.00 0.000
9/25/2017 10:58:49a 330 21 32 18 15 78.4 78.0 29.87 0.48 3.2 752 0.00 0.00 0.00 0.000
9/25/2017 11:00:56a 339 21 32 18 16 78.4 77.9 29.87 0.48 3.2 754 0.00 0.00 0.00 0.000
9/25/2017 11:01:56a 339 21 32 18 16 78.4 77.9 29.87 0.48 3.2 754 0.00 0.00 0.00 0.000
9/25/2017 11:02:57a 296 19 26 18 16 78.4 78.0 29.87 0.48 3.3 766 0.00 0.00 0.00 0.000
9/25/2017 11:03:57a 306 12 26 18 16 78.4 78.0 29.87 0.48 3.3 766 0.00 0.00 0.00 0.000
9/25/2017 11:04:58a 325 28 28 18 16 78.4 78.1 29.86 0.48 3.3 770 0.00 0.00 0.00 0.000
9/25/2017 11:05:58a 330 27 28 18 16 78.4 78.1 29.86 0.48 3.3 770 0.00 0.00 0.00 0.000
9/25/2017 11:06:58a 330 27 28 18 16 78.4 78.1 29.86 0.48 3.3 770 0.00 0.00 0.00 0.000
9/25/2017 11:07:59a 325 16 28 19 15 78.4 78.1 29.87 0.48 3.4 777 0.00 0.00 0.00 0.000
9/25/2017 11:08:59a 279 9 28 19 15 78.4 78.1 29.87 0.48 3.4 777 0.00 0.00 0.00 0.000
9/25/2017 11:10:02a 316 26 30 19 15 78.4 78.1 29.87 0.48 3.4 779 0.00 0.00 0.00 0.000
9/25/2017 11:11:06a 316 26 30 19 15 78.4 78.1 29.87 0.48 3.4 779 0.00 0.00 0.00 0.000
9/25/2017 11:12:06a 316 26 30 19 15 78.4 78.1 29.87 0.48 3.4 779 0.00 0.00 0.00 0.000
9/25/2017 11:13:06a 325 19 30 18 15 78.6 78.1 29.87 0.48 3.5 786 0.00 0.00 0.00 0.000
9/25/2017 11:14:07a 318 18 30 18 15 78.6 78.0 29.87 0.48 3.5 788 0.00 0.00 0.00 0.000
9/25/2017 11:15:07a 291 16 30 18 16 78.6 78.1 29.86 0.48 3.5 791 0.00 0.00 0.00 0.000
9/25/2017 11:16:11a 291 16 30 18 16 78.6 78.1 29.86 0.48 3.5 791 0.00 0.00 0.00 0.000
9/25/2017 11:17:14a 291 16 30 18 16 78.6 78.1 29.86 0.48 3.5 791 0.00 0.00 0.00 0.000
9/25/2017 11:18:14a 302 16 23 18 15 78.6 78.3 29.87 0.48 3.6 805 0.00 0.00 0.00 0.000
9/25/2017 11:19:15a 303 27 27 18 15 78.6 78.3 29.87 0.48 3.6 807 0.00 0.00 0.00 0.000
9/25/2017 11:20:15a 299 22 28 18 15 78.6 78.3 29.87 0.48 3.6 814 0.00 0.00 0.00 0.000
9/25/2017 11:21:22a 299 22 28 18 15 78.6 78.3 29.87 0.48 3.6 814 0.00 0.00 0.00 0.000
9/25/2017 11:22:22a 299 22 28 18 15 78.6 78.3 29.87 0.48 3.6 814 0.00 0.00 0.00 0.000
9/25/2017 11:23:25a 258 12 28 19 15 78.6 78.6 29.87 0.48 3.7 828 0.00 0.00 0.00 0.000
9/25/2017 11:24:25a 285 15 28 19 15 78.6 78.6 29.87 0.48 3.8 837 0.00 0.00 0.00 0.000
9/25/2017 11:26:29a 302 28 28 19 15 78.6 78.6 29.87 0.48 3.8 846 0.00 0.00 0.00 0.000
9/25/2017 11:27:36a 299 25 28 19 15 78.6 78.7 29.87 0.48 3.8 849 0.00 0.00 0.00 0.000
9/25/2017 11:28:36a 306 13 28 19 15 78.6 78.8 29.87 0.48 3.5 849 0.00 0.00 0.00 0.000
9/25/2017 11:29:36a 311 23 28 19 15 78.6 78.9 29.87 0.48 3.6 791 0.00 0.00 0.00 0.000
9/25/2017 11:30:37a 283 19 28 19 15 78.6 78.9 29.87 0.48 3.6 791 0.00 0.00 0.00 0.000
9/25/2017 11:31:37a 283 19 28 19 15 78.6 78.9 29.87 0.48 3.6 791 0.00 0.00 0.00 0.000
9/25/2017 11:32:38a 289 24 24 19 15 78.8 78.8 29.86 0.48 3.7 754 0.00 0.00 0.00 0.000
9/25/2017 11:33:38a 293 17 27 19 15 78.8 78.9 29.87 0.48 3.6 754 0.00 0.00 0.00 0.000
9/25/2017 11:34:38a 314 25 27 19 15 78.8 79.0 29.86 0.48 3.9 874 0.00 0.00 0.00 0.000
9/25/2017 11:35:39a 299 18 31 19 15 78.8 79.0 29.86 0.48 3.9 874 0.00 0.00 0.00 0.000
9/25/2017 11:36:39a 299 18 31 19 15 78.8 79.0 29.86 0.48 3.9 874 0.00 0.00 0.00 0.000
9/25/2017 11:37:39a 303 12 31 19 15 78.8 79.0 29.87 0.48 3.6 868 0.00 0.00 0.00 0.000
9/25/2017 11:38:40a 306 15 31 19 15 78.8 79.0 29.87 0.48 3.9 775 0.00 0.00 0.00 0.000
9/25/2017 11:39:40a 325 21 31 19 15 78.8 79.1 29.87 0.48 3.5 775 0.00 0.00 0.00 0.000
9/25/2017 11:40:41a 335 16 31 19 15 78.8 79.1 29.87 0.48 3.5 775 0.00 0.00 0.00 0.000
9/25/2017 11:41:41a 335 16 31 19 15 78.8 79.1 29.87 0.48 3.5 775 0.00 0.00 0.00 0.000
9/25/2017 11:42:44a 296 16 31 19 15 78.8 79.1 29.86 0.48 3.5 714 0.00 0.00 0.00 0.000
9/25/2017 11:43:45a 316 14 31 19 15 78.8 79.1 29.86 0.48 3.6 649 0.00 0.00 0.00 0.000
9/25/2017 11:44:45a 310 22 31 19 15 78.9 79.1 29.86 0.48 3.9 847 0.00 0.00 0.00 0.000
9/25/2017 11:45:49a 312 23 31 19 15 78.9 79.1 29.86 0.48 3.9 847 0.00 0.00 0.00 0.000
9/25/2017 11:46:49a 312 23 31 19 15 78.9 79.1 29.86 0.48 3.9 847 0.00 0.00 0.00 0.000
9/25/2017 11:47:52a 325 15 21 19 15 78.9 79.2 29.86 0.48 4.2 916 0.00 0.00 0.00 0.000
9/25/2017 11:48:56a 289 19 21 19 15 78.9 79.2 29.86 0.48 4.1 919 0.00 0.00 0.00 0.000
9/25/2017 11:49:56a 347 15 21 19 15 78.9 79.3 29.86 0.48 3.5 710 0.00 0.00 0.00 0.000
9/25/2017 11:52:00a 325 12 21 19 15 78.9 79.3 29.86 0.48 3.5 710 0.00 0.00 0.00 0.000
9/25/2017 11:53:04a 291 12 21 19 15 78.9 79.5 29.86 0.48 3.0 550 0.00 0.00 0.00 0.000
9/25/2017 11:55:04a 335 9 21 19 15 78.8 79.6 29.86 0.48 2.4 390 0.00 0.00 0.00 0.000
9/25/2017 11:56:05a 335 9 21 19 15 78.8 79.6 29.86 0.48 2.4 390 0.00 0.00 0.00 0.000
9/25/2017 11:57:05a 335 9 21 19 15 78.8 79.6 29.86 0.48 2.4 390 0.00 0.00 0.00 0.000
9/25/2017 11:58:06a 300 15 21 19 15 78.9 79.5 29.85 0.48 2.9 427 0.00 0.00 0.00 0.000
9/25/2017 11:59:06a 296 19 25 19 15 78.9 79.4 29.86 0.48 2.9 427 0.00 0.00 0.00 0.000
9/25/2017 12:00:07p 287 14 25 19 15 78.9 79.3 29.86 0.48 2.1 427 0.00 0.00 0.00 0.000
9/25/2017 12:01:07p 287 14 25 19 15 78.9 79.3 29.86 0.48 2.1 427 0.00 0.00 0.00 0.000
9/25/2017 12:02:07p 287 14 25 19 15 78.9 79.3 29.86 0.48 2.1 427 0.00 0.00 0.00 0.000
9/25/2017 12:04:13p 308 16 26 19 15 78.9 78.8 29.86 0.48 2.5 294 0.00 0.00 0.00 0.000
9/25/2017 12:05:20p 319 20 26 19 16 78.9 78.7 29.86 0.48 3.6 294 0.00 0.00 0.00 0.000
9/25/2017 12:06:23p 319 20 26 19 16 78.9 78.7 29.86 0.48 3.6 294 0.00 0.00 0.00 0.000
9/25/2017 12:07:26p 319 20 26 19 16 78.9 78.7 29.86 0.48 3.6 294 0.00 0.00 0.00 0.000
9/25/2017 12:08:25p 317 17 26 19 16 78.9 78.6 29.86 0.48 4.1 863 0.00 0.00 0.00 0.000
9/25/2017 12:09:26p 310 14 26 19 16 78.9 78.6 29.85 0.48 4.1 856 0.00 0.00 0.00 0.000
9/25/2017 12:10:26p 321 16 26 19 16 78.9 78.7 29.85 0.48 4.0 856 0.00 0.00 0.00 0.000
9/25/2017 12:11:26p 321 16 26 19 16 78.9 78.7 29.85 0.48 4.0 856 0.00 0.00 0.00 0.000
9/25/2017 12:12:30p 321 16 26 19 16 78.9 78.7 29.85 0.48 4.0 856 0.00 0.00 0.00 0.000
9/25/2017 12:13:36p 282 14 26 19 16 79.1 79.0 29.85 0.48 4.0 853 0.00 0.00 0.00 0.000
9/25/2017 12:14:37p 309 12 26 19 15 79.1 79.0 29.85 0.48 4.1 847 0.00 0.00 0.00 0.000
9/25/2017 12:15:40p 303 6 26 19 16 79.1 79.1 29.85 0.48 4.1 847 0.00 0.00 0.00 0.000
9/25/2017 12:16:43p 303 6 26 19 16 79.1 79.1 29.85 0.48 4.1 847 0.00 0.00 0.00 0.000
9/25/2017 12:17:44p 330 18 21 19 16 79.1 79.6 29.85 0.48 4.1 847 0.00 0.00 0.00 0.000
9/25/2017 12:18:44p 284 13 25 19 15 79.1 79.7 29.85 0.48 4.1 847 0.00 0.00 0.00 0.000
9/25/2017 12:20:48p 320 14 25 19 15 79.1 79.7 29.85 0.48 4.1 846 0.00 0.00 0.00 0.000
9/25/2017 12:21:49p 320 14 25 19 15 79.1 79.7 29.85 0.48 4.1 846 0.00 0.00 0.00 0.000
9/25/2017 12:22:49p 320 8 25 19 16 79.1 79.9 29.85 0.48 4.1 844 0.00 0.00 0.00 0.000
9/25/2017 12:23:50p 325 17 25 19 16 79.1 80.0 29.85 0.48 4.1 846 0.00 0.00 0.00 0.000
9/25/2017 12:25:56p 301 12 25 19 16 79.1 80.1 29.85 0.48 4.1 847 0.00 0.00 0.00 0.000
9/25/2017 12:26:57p 301 12 25 19 16 79.1 80.1 29.85 0.48 4.1 847 0.00 0.00 0.00 0.000
9/25/2017 12:28:00p 292 21 25 19 15 79.3 80.3 29.85 0.48 4.1 847 0.00 0.00 0.00 0.000
9/25/2017 12:29:00p 314 10 25 19 15 79.3 80.3 29.85 0.48 4.1 849 0.00 0.00 0.00 0.000
9/25/2017 12:30:00p 314 12 25 19 15 79.5 80.4 29.85 0.48 4.1 849 0.00 0.00 0.00 0.000
9/25/2017 12:31:01p 314 12 25 19 15 79.5 80.4 29.85 0.48 4.1 849 0.00 0.00 0.00 0.000
9/25/2017 12:32:04p 314 12 25 19 15 79.5 80.4 29.85 0.48 4.1 849 0.00 0.00 0.00 0.000
9/25/2017 12:33:04p 317 16 20 19 15 79.5 80.6 29.84 0.48 4.1 853 0.00 0.00 0.00 0.000
9/25/2017 12:34:08p 330 18 20 19 15 79.3 80.5 29.84 0.48 4.1 851 0.00 0.00 0.00 0.000
9/25/2017 12:35:11p 308 15 21 19 15 79.3 80.5 29.84 0.48 4.1 856 0.00 0.00 0.00 0.000
9/25/2017 12:36:12p 308 15 21 19 15 79.3 80.5 29.84 0.48 4.1 856 0.00 0.00 0.00 0.000
9/25/2017 12:37:15p 308 15 21 19 15 79.3 80.5 29.84 0.48 4.1 856 0.00 0.00 0.00 0.000
9/25/2017 12:38:22p 295 11 21 19 15 79.1 80.5 29.84 0.48 4.2 870 0.00 0.00 0.00 0.000
9/25/2017 12:40:29p 304 17 24 19 15 79.1 80.5 29.84 0.48 4.2 874 0.00 0.00 0.00 0.000
9/25/2017 12:41:32p 304 17 24 19 15 79.1 80.5 29.84 0.48 4.2 874 0.00 0.00 0.00 0.000
9/25/2017 12:42:39p 288 10 24 19 15 79.1 80.6 29.84 0.48 4.1 904 0.00 0.00 0.00 0.000
9/25/2017 12:43:45p 300 13 24 19 15 79.1 80.6 29.84 0.48 3.0 904 0.00 0.00 0.00 0.000
9/25/2017 12:44:46p 325 17 24 19 15 79.1 80.6 29.84 0.48 2.4 904 0.00 0.00 0.00 0.000
9/25/2017 12:45:46p 315 20 24 19 15 79.1 80.6 29.84 0.48 2.4 904 0.00 0.00 0.00 0.000
9/25/2017 12:46:46p 315 20 24 19 15 79.1 80.6 29.84 0.48 2.4 904 0.00 0.00 0.00 0.000
9/25/2017 12:47:50p 299 20 20 19 15 79.1 80.6 29.84 0.48 3.5 661 0.00 0.00 0.00 0.000
9/25/2017 12:48:50p 314 15 20 19 15 79.1 80.6 29.84 0.48 4.1 661 0.00 0.00 0.00 0.000
9/25/2017 12:49:50p 335 12 20 19 15 79.1 80.6 29.84 0.48 4.1 865 0.00 0.00 0.00 0.000
9/25/2017 12:50:51p 276 12 20 19 15 79.1 80.6 29.84 0.48 4.1 865 0.00 0.00 0.00 0.000
9/25/2017 12:51:51p 276 12 20 19 15 79.1 80.6 29.84 0.48 4.1 865 0.00 0.00 0.00 0.000
9/25/2017 12:52:55p 293 12 21 19 15 79.1 80.8 29.83 0.48 4.1 854 0.00 0.00 0.00 0.000
9/25/2017 12:53:58p 270 17 21 19 15 79.1 80.9 29.83 0.48 4.1 853 0.00 0.00 0.00 0.000
9/25/2017 12:55:02p 286 10 21 19 15 79.1 80.9 29.83 0.48 4.1 853 0.00 0.00 0.00 0.000
9/25/2017 12:56:08p 286 10 21 19 15 79.1 80.9 29.83 0.48 4.1 853 0.00 0.00 0.00 0.000
9/25/2017 12:59:09p 316 16 21 19 15 79.3 81.0 29.83 0.48 4.1 849 0.00 0.00 0.00 0.000
9/25/2017 1:00:13p 306 18 23 19 15 79.3 81.0 29.83 0.48 4.1 851 0.00 0.00 0.00 0.000
9/25/2017 1:01:13p 306 18 23 19 15 79.3 81.0 29.83 0.48 4.1 851 0.00 0.00 0.00 0.000
9/25/2017 1:02:13p 306 18 23 19 15 79.3 81.0 29.83 0.48 4.1 851 0.00 0.00 0.00 0.000
9/25/2017 1:03:20p 295 18 24 19 15 79.5 81.3 29.84 0.48 4.1 849 0.00 0.00 0.00 0.000
9/25/2017 1:04:26p 266 18 24 19 15 79.5 81.3 29.83 0.48 4.1 847 0.00 0.00 0.00 0.000
9/25/2017 1:05:29p 256 18 24 19 15 79.5 81.3 29.83 0.48 4.1 847 0.00 0.00 0.00 0.000
9/25/2017 1:06:29p 256 18 24 19 15 79.5 81.3 29.83 0.48 4.1 847 0.00 0.00 0.00 0.000
9/25/2017 1:07:33p 286 14 24 19 15 79.3 81.5 29.83 0.48 4.1 849 0.00 0.00 0.00 0.000
9/25/2017 1:08:33p 289 20 24 19 15 79.3 81.5 29.83 0.48 4.1 849 0.00 0.00 0.00 0.000
9/25/2017 1:09:34p 268 14 24 19 15 79.3 81.6 29.83 0.48 4.0 847 0.00 0.00 0.00 0.000
9/25/2017 1:10:37p 284 12 24 19 15 79.3 81.6 29.83 0.48 4.0 849 0.00 0.00 0.00 0.000
9/25/2017 1:11:37p 284 12 24 19 15 79.3 81.6 29.83 0.48 4.0 849 0.00 0.00 0.00 0.000
9/25/2017 1:12:38p 279 13 24 19 15 79.1 81.5 29.83 0.48 4.0 847 0.00 0.00 0.00 0.000
9/25/2017 1:13:38p 292 17 24 19 15 79.1 81.6 29.83 0.48 4.0 846 0.00 0.00 0.00 0.000
9/25/2017 1:14:38p 299 15 24 19 15 79.1 81.5 29.83 0.48 4.0 846 0.00 0.00 0.00 0.000
9/25/2017 1:15:37p 304 15 24 19 15 79.1 81.5 29.83 0.48 4.0 846 0.00 0.00 0.00 0.000
9/25/2017 1:16:38p 304 15 24 19 15 79.1 81.5 29.83 0.48 4.0 846 0.00 0.00 0.00 0.000
9/25/2017 1:17:39p 305 20 21 19 15 79.1 81.6 29.83 0.48 4.0 844 0.00 0.00 0.00 0.000
9/25/2017 1:18:39p 317 15 21 19 15 79.1 81.6 29.83 0.48 4.0 842 0.00 0.00 0.00 0.000
9/25/2017 1:19:42p 325 12 21 19 15 79.1 81.6 29.83 0.48 4.0 842 0.00 0.00 0.00 0.000
9/25/2017 1:20:43p 310 15 21 19 15 79.1 81.6 29.83 0.48 4.0 842 0.00 0.00 0.00 0.000
9/25/2017 1:21:43p 310 15 21 19 15 79.1 81.6 29.83 0.48 4.0 842 0.00 0.00 0.00 0.000

© All rights reserved. Unauthorized duplication or distribution is prohibited

Never base important decisions on this or any weather information obtained from the Internet

California State University, San Bernardino
5500 University Parkway, San Bernardino, CA. 92407
Phone: (909) 537-7558, Email: Weather Master
Last Updated: